<?xml version="1.0" encoding="UTF-8" standalone="no" ?>
<gpx xmlns="http://www.topografix.com/GPX/1/1" xmlns:xsi="http://www.w3.org/2001/XMLSchema-instance" xsi:schemaLocation="http://www.topografix.com/GPX/1/1 http://www.topografix.com/GPX/1/1/gpx.xsd" version="1.1" creator="VisuGPX - https://www.visugpx.com">
  <metadata>
    <name>La Garette 7 km</name>
  </metadata>
  <trk>
    <name><![CDATA[La Garette 7 km_1]]></name>
    <trkseg>
      <trkpt lat="46.30309" lon="-0.59358">
        <ele>58</ele>
        <time>2012-10-18T14:06:01Z</time>
      </trkpt>
      <trkpt lat="46.30309" lon="-0.59358">
        <ele>58</ele>
        <time>2012-10-18T14:06:21Z</time>
      </trkpt>
      <trkpt lat="46.30311" lon="-0.59357">
        <ele>58</ele>
        <time>2012-10-18T14:06:26Z</time>
      </trkpt>
      <trkpt lat="46.30314" lon="-0.59356">
        <ele>59</ele>
        <time>2012-10-18T14:06:31Z</time>
      </trkpt>
      <trkpt lat="46.30318" lon="-0.59358">
        <ele>56</ele>
        <time>2012-10-18T14:06:36Z</time>
      </trkpt>
      <trkpt lat="46.30322" lon="-0.59361">
        <ele>56</ele>
        <time>2012-10-18T14:06:41Z</time>
      </trkpt>
      <trkpt lat="46.30324" lon="-0.59364">
        <ele>56</ele>
        <time>2012-10-18T14:06:46Z</time>
      </trkpt>
      <trkpt lat="46.30325" lon="-0.59371">
        <ele>55</ele>
        <time>2012-10-18T14:06:51Z</time>
      </trkpt>
      <trkpt lat="46.30325" lon="-0.59378">
        <ele>57</ele>
        <time>2012-10-18T14:06:56Z</time>
      </trkpt>
      <trkpt lat="46.30325" lon="-0.59382">
        <ele>57</ele>
        <time>2012-10-18T14:07:01Z</time>
      </trkpt>
      <trkpt lat="46.30323" lon="-0.59384">
        <ele>56</ele>
        <time>2012-10-18T14:07:06Z</time>
      </trkpt>
      <trkpt lat="46.30319" lon="-0.59386">
        <ele>57</ele>
        <time>2012-10-18T14:07:11Z</time>
      </trkpt>
      <trkpt lat="46.30315" lon="-0.59389">
        <ele>58</ele>
        <time>2012-10-18T14:07:16Z</time>
      </trkpt>
      <trkpt lat="46.30312" lon="-0.59394">
        <ele>60</ele>
        <time>2012-10-18T14:07:21Z</time>
      </trkpt>
      <trkpt lat="46.30309" lon="-0.59401">
        <ele>59</ele>
        <time>2012-10-18T14:07:26Z</time>
      </trkpt>
      <trkpt lat="46.30307" lon="-0.59407">
        <ele>58</ele>
        <time>2012-10-18T14:07:31Z</time>
      </trkpt>
      <trkpt lat="46.30305" lon="-0.59413">
        <ele>57</ele>
        <time>2012-10-18T14:07:36Z</time>
      </trkpt>
      <trkpt lat="46.30304" lon="-0.59417">
        <ele>57</ele>
        <time>2012-10-18T14:07:41Z</time>
      </trkpt>
      <trkpt lat="46.30302" lon="-0.59424">
        <ele>57</ele>
        <time>2012-10-18T14:07:46Z</time>
      </trkpt>
      <trkpt lat="46.30297" lon="-0.59433">
        <ele>57</ele>
        <time>2012-10-18T14:07:51Z</time>
      </trkpt>
      <trkpt lat="46.30295" lon="-0.59441">
        <ele>57</ele>
        <time>2012-10-18T14:07:56Z</time>
      </trkpt>
      <trkpt lat="46.30294" lon="-0.59448">
        <ele>57</ele>
        <time>2012-10-18T14:08:01Z</time>
      </trkpt>
      <trkpt lat="46.30292" lon="-0.59455">
        <ele>55</ele>
        <time>2012-10-18T14:08:06Z</time>
      </trkpt>
      <trkpt lat="46.30292" lon="-0.59458">
        <ele>56</ele>
        <time>2012-10-18T14:08:11Z</time>
      </trkpt>
      <trkpt lat="46.3029" lon="-0.5946">
        <ele>55</ele>
        <time>2012-10-18T14:08:16Z</time>
      </trkpt>
      <trkpt lat="46.30288" lon="-0.59468">
        <ele>55</ele>
        <time>2012-10-18T14:08:21Z</time>
      </trkpt>
      <trkpt lat="46.30286" lon="-0.59476">
        <ele>54</ele>
        <time>2012-10-18T14:08:26Z</time>
      </trkpt>
      <trkpt lat="46.30285" lon="-0.59484">
        <ele>53</ele>
        <time>2012-10-18T14:08:31Z</time>
      </trkpt>
      <trkpt lat="46.30282" lon="-0.59494">
        <ele>54</ele>
        <time>2012-10-18T14:08:36Z</time>
      </trkpt>
      <trkpt lat="46.30281" lon="-0.59503">
        <ele>54</ele>
        <time>2012-10-18T14:08:41Z</time>
      </trkpt>
      <trkpt lat="46.30279" lon="-0.59514">
        <ele>56</ele>
        <time>2012-10-18T14:08:46Z</time>
      </trkpt>
      <trkpt lat="46.30279" lon="-0.59522">
        <ele>55</ele>
        <time>2012-10-18T14:08:51Z</time>
      </trkpt>
      <trkpt lat="46.30279" lon="-0.59529">
        <ele>56</ele>
        <time>2012-10-18T14:08:56Z</time>
      </trkpt>
      <trkpt lat="46.3028" lon="-0.59539">
        <ele>55</ele>
        <time>2012-10-18T14:09:01Z</time>
      </trkpt>
      <trkpt lat="46.30281" lon="-0.59547">
        <ele>55</ele>
        <time>2012-10-18T14:09:06Z</time>
      </trkpt>
      <trkpt lat="46.30282" lon="-0.59555">
        <ele>57</ele>
        <time>2012-10-18T14:09:11Z</time>
      </trkpt>
      <trkpt lat="46.30283" lon="-0.59562">
        <ele>56</ele>
        <time>2012-10-18T14:09:16Z</time>
      </trkpt>
      <trkpt lat="46.30285" lon="-0.59572">
        <ele>56</ele>
        <time>2012-10-18T14:09:21Z</time>
      </trkpt>
      <trkpt lat="46.30289" lon="-0.59578">
        <ele>54</ele>
        <time>2012-10-18T14:09:26Z</time>
      </trkpt>
      <trkpt lat="46.30294" lon="-0.5958">
        <ele>54</ele>
        <time>2012-10-18T14:09:31Z</time>
      </trkpt>
      <trkpt lat="46.30298" lon="-0.59583">
        <ele>53</ele>
        <time>2012-10-18T14:09:36Z</time>
      </trkpt>
      <trkpt lat="46.30303" lon="-0.5959">
        <ele>53</ele>
        <time>2012-10-18T14:09:41Z</time>
      </trkpt>
      <trkpt lat="46.30304" lon="-0.59596">
        <ele>52</ele>
        <time>2012-10-18T14:09:46Z</time>
      </trkpt>
      <trkpt lat="46.30306" lon="-0.59602">
        <ele>53</ele>
        <time>2012-10-18T14:09:51Z</time>
      </trkpt>
      <trkpt lat="46.30312" lon="-0.59607">
        <ele>55</ele>
        <time>2012-10-18T14:09:56Z</time>
      </trkpt>
      <trkpt lat="46.30315" lon="-0.59614">
        <ele>55</ele>
        <time>2012-10-18T14:10:01Z</time>
      </trkpt>
      <trkpt lat="46.3032" lon="-0.59616">
        <ele>55</ele>
        <time>2012-10-18T14:10:06Z</time>
      </trkpt>
      <trkpt lat="46.30324" lon="-0.5962">
        <ele>53</ele>
        <time>2012-10-18T14:10:11Z</time>
      </trkpt>
      <trkpt lat="46.30325" lon="-0.59622">
        <ele>52</ele>
        <time>2012-10-18T14:10:16Z</time>
      </trkpt>
      <trkpt lat="46.30328" lon="-0.59621">
        <ele>52</ele>
        <time>2012-10-18T14:10:21Z</time>
      </trkpt>
      <trkpt lat="46.30332" lon="-0.59613">
        <ele>52</ele>
        <time>2012-10-18T14:10:26Z</time>
      </trkpt>
      <trkpt lat="46.30337" lon="-0.59613">
        <ele>51</ele>
        <time>2012-10-18T14:10:31Z</time>
      </trkpt>
      <trkpt lat="46.30344" lon="-0.59615">
        <ele>51</ele>
        <time>2012-10-18T14:10:36Z</time>
      </trkpt>
      <trkpt lat="46.30351" lon="-0.59619">
        <ele>51</ele>
        <time>2012-10-18T14:10:41Z</time>
      </trkpt>
      <trkpt lat="46.30355" lon="-0.59626">
        <ele>51</ele>
        <time>2012-10-18T14:10:46Z</time>
      </trkpt>
      <trkpt lat="46.30361" lon="-0.59632">
        <ele>51</ele>
        <time>2012-10-18T14:10:51Z</time>
      </trkpt>
      <trkpt lat="46.30362" lon="-0.5963">
        <ele>50</ele>
        <time>2012-10-18T14:10:56Z</time>
      </trkpt>
      <trkpt lat="46.30365" lon="-0.59631">
        <ele>50</ele>
        <time>2012-10-18T14:11:01Z</time>
      </trkpt>
      <trkpt lat="46.30373" lon="-0.59637">
        <ele>52</ele>
        <time>2012-10-18T14:11:06Z</time>
      </trkpt>
      <trkpt lat="46.3038" lon="-0.59639">
        <ele>55</ele>
        <time>2012-10-18T14:11:11Z</time>
      </trkpt>
      <trkpt lat="46.30388" lon="-0.59633">
        <ele>55</ele>
        <time>2012-10-18T14:11:16Z</time>
      </trkpt>
      <trkpt lat="46.30392" lon="-0.59626">
        <ele>55</ele>
        <time>2012-10-18T14:11:21Z</time>
      </trkpt>
      <trkpt lat="46.30395" lon="-0.59617">
        <ele>55</ele>
        <time>2012-10-18T14:11:26Z</time>
      </trkpt>
      <trkpt lat="46.30394" lon="-0.59609">
        <ele>53</ele>
        <time>2012-10-18T14:11:31Z</time>
      </trkpt>
      <trkpt lat="46.30396" lon="-0.596">
        <ele>56</ele>
        <time>2012-10-18T14:11:36Z</time>
      </trkpt>
      <trkpt lat="46.30391" lon="-0.59592">
        <ele>57</ele>
        <time>2012-10-18T14:11:41Z</time>
      </trkpt>
      <trkpt lat="46.30389" lon="-0.59579">
        <ele>58</ele>
        <time>2012-10-18T14:11:46Z</time>
      </trkpt>
      <trkpt lat="46.30392" lon="-0.5958">
        <ele>56</ele>
        <time>2012-10-18T14:11:51Z</time>
      </trkpt>
      <trkpt lat="46.30399" lon="-0.59575">
        <ele>55</ele>
        <time>2012-10-18T14:11:56Z</time>
      </trkpt>
      <trkpt lat="46.30405" lon="-0.59577">
        <ele>53</ele>
        <time>2012-10-18T14:12:01Z</time>
      </trkpt>
      <trkpt lat="46.3041" lon="-0.59576">
        <ele>51</ele>
        <time>2012-10-18T14:12:06Z</time>
      </trkpt>
      <trkpt lat="46.30411" lon="-0.59577">
        <ele>49</ele>
        <time>2012-10-18T14:12:11Z</time>
      </trkpt>
      <trkpt lat="46.30419" lon="-0.5958">
        <ele>50</ele>
        <time>2012-10-18T14:12:16Z</time>
      </trkpt>
      <trkpt lat="46.30426" lon="-0.59581">
        <ele>53</ele>
        <time>2012-10-18T14:12:21Z</time>
      </trkpt>
      <trkpt lat="46.30435" lon="-0.5958">
        <ele>56</ele>
        <time>2012-10-18T14:12:26Z</time>
      </trkpt>
      <trkpt lat="46.30434" lon="-0.59583">
        <ele>56</ele>
        <time>2012-10-18T14:12:31Z</time>
      </trkpt>
      <trkpt lat="46.30443" lon="-0.59591">
        <ele>58</ele>
        <time>2012-10-18T14:12:36Z</time>
      </trkpt>
      <trkpt lat="46.30447" lon="-0.59598">
        <ele>59</ele>
        <time>2012-10-18T14:12:41Z</time>
      </trkpt>
      <trkpt lat="46.30448" lon="-0.59602">
        <ele>58</ele>
        <time>2012-10-18T14:12:46Z</time>
      </trkpt>
      <trkpt lat="46.30451" lon="-0.59607">
        <ele>59</ele>
        <time>2012-10-18T14:12:51Z</time>
      </trkpt>
      <trkpt lat="46.30454" lon="-0.59612">
        <ele>55</ele>
        <time>2012-10-18T14:12:56Z</time>
      </trkpt>
      <trkpt lat="46.30453" lon="-0.5962">
        <ele>54</ele>
        <time>2012-10-18T14:13:01Z</time>
      </trkpt>
      <trkpt lat="46.30453" lon="-0.59627">
        <ele>54</ele>
        <time>2012-10-18T14:13:06Z</time>
      </trkpt>
      <trkpt lat="46.30452" lon="-0.59633">
        <ele>54</ele>
        <time>2012-10-18T14:13:11Z</time>
      </trkpt>
      <trkpt lat="46.30451" lon="-0.59634">
        <ele>54</ele>
        <time>2012-10-18T14:13:16Z</time>
      </trkpt>
      <trkpt lat="46.30448" lon="-0.5965">
        <ele>54</ele>
        <time>2012-10-18T14:13:21Z</time>
      </trkpt>
      <trkpt lat="46.30442" lon="-0.59665">
        <ele>54</ele>
        <time>2012-10-18T14:13:26Z</time>
      </trkpt>
      <trkpt lat="46.3044" lon="-0.59669">
        <ele>54</ele>
        <time>2012-10-18T14:13:31Z</time>
      </trkpt>
      <trkpt lat="46.3044" lon="-0.59669">
        <ele>54</ele>
        <time>2012-10-18T14:13:36Z</time>
      </trkpt>
      <trkpt lat="46.30439" lon="-0.59678">
        <ele>53</ele>
        <time>2012-10-18T14:13:41Z</time>
      </trkpt>
      <trkpt lat="46.30438" lon="-0.59685">
        <ele>53</ele>
        <time>2012-10-18T14:13:46Z</time>
      </trkpt>
      <trkpt lat="46.30436" lon="-0.59701">
        <ele>53</ele>
        <time>2012-10-18T14:13:51Z</time>
      </trkpt>
      <trkpt lat="46.30434" lon="-0.59709">
        <ele>51</ele>
        <time>2012-10-18T14:13:56Z</time>
      </trkpt>
      <trkpt lat="46.30432" lon="-0.59718">
        <ele>52</ele>
        <time>2012-10-18T14:14:01Z</time>
      </trkpt>
      <trkpt lat="46.30431" lon="-0.59723">
        <ele>51</ele>
        <time>2012-10-18T14:14:06Z</time>
      </trkpt>
      <trkpt lat="46.3043" lon="-0.59729">
        <ele>51</ele>
        <time>2012-10-18T14:14:11Z</time>
      </trkpt>
      <trkpt lat="46.30431" lon="-0.59733">
        <ele>51</ele>
        <time>2012-10-18T14:14:16Z</time>
      </trkpt>
      <trkpt lat="46.30433" lon="-0.59737">
        <ele>51</ele>
        <time>2012-10-18T14:14:21Z</time>
      </trkpt>
      <trkpt lat="46.30436" lon="-0.59739">
        <ele>50</ele>
        <time>2012-10-18T14:14:26Z</time>
      </trkpt>
      <trkpt lat="46.30437" lon="-0.59738">
        <ele>50</ele>
        <time>2012-10-18T14:14:31Z</time>
      </trkpt>
      <trkpt lat="46.30443" lon="-0.59742">
        <ele>51</ele>
        <time>2012-10-18T14:14:36Z</time>
      </trkpt>
      <trkpt lat="46.30443" lon="-0.59744">
        <ele>48</ele>
        <time>2012-10-18T14:14:41Z</time>
      </trkpt>
      <trkpt lat="46.30446" lon="-0.59748">
        <ele>47</ele>
        <time>2012-10-18T14:14:46Z</time>
      </trkpt>
      <trkpt lat="46.30457" lon="-0.59751">
        <ele>46</ele>
        <time>2012-10-18T14:14:51Z</time>
      </trkpt>
      <trkpt lat="46.30458" lon="-0.59749">
        <ele>45</ele>
        <time>2012-10-18T14:14:56Z</time>
      </trkpt>
      <trkpt lat="46.30458" lon="-0.59757">
        <ele>47</ele>
        <time>2012-10-18T14:15:01Z</time>
      </trkpt>
      <trkpt lat="46.30456" lon="-0.59764">
        <ele>47</ele>
        <time>2012-10-18T14:15:06Z</time>
      </trkpt>
      <trkpt lat="46.30455" lon="-0.59773">
        <ele>47</ele>
        <time>2012-10-18T14:15:11Z</time>
      </trkpt>
      <trkpt lat="46.30453" lon="-0.59782">
        <ele>47</ele>
        <time>2012-10-18T14:15:16Z</time>
      </trkpt>
      <trkpt lat="46.30451" lon="-0.59791">
        <ele>46</ele>
        <time>2012-10-18T14:15:21Z</time>
      </trkpt>
      <trkpt lat="46.30449" lon="-0.59797">
        <ele>46</ele>
        <time>2012-10-18T14:15:26Z</time>
      </trkpt>
      <trkpt lat="46.30448" lon="-0.59803">
        <ele>47</ele>
        <time>2012-10-18T14:15:31Z</time>
      </trkpt>
      <trkpt lat="46.30445" lon="-0.59812">
        <ele>47</ele>
        <time>2012-10-18T14:15:36Z</time>
      </trkpt>
      <trkpt lat="46.30444" lon="-0.59821">
        <ele>47</ele>
        <time>2012-10-18T14:15:41Z</time>
      </trkpt>
      <trkpt lat="46.30441" lon="-0.5983">
        <ele>48</ele>
        <time>2012-10-18T14:15:46Z</time>
      </trkpt>
      <trkpt lat="46.30439" lon="-0.59838">
        <ele>47</ele>
        <time>2012-10-18T14:15:51Z</time>
      </trkpt>
      <trkpt lat="46.30438" lon="-0.59844">
        <ele>47</ele>
        <time>2012-10-18T14:15:56Z</time>
      </trkpt>
      <trkpt lat="46.30436" lon="-0.59853">
        <ele>49</ele>
        <time>2012-10-18T14:16:01Z</time>
      </trkpt>
      <trkpt lat="46.30434" lon="-0.59863">
        <ele>50</ele>
        <time>2012-10-18T14:16:06Z</time>
      </trkpt>
      <trkpt lat="46.30432" lon="-0.5987">
        <ele>51</ele>
        <time>2012-10-18T14:16:11Z</time>
      </trkpt>
      <trkpt lat="46.3043" lon="-0.59877">
        <ele>51</ele>
        <time>2012-10-18T14:16:16Z</time>
      </trkpt>
      <trkpt lat="46.30428" lon="-0.59884">
        <ele>50</ele>
        <time>2012-10-18T14:16:21Z</time>
      </trkpt>
      <trkpt lat="46.30425" lon="-0.59891">
        <ele>51</ele>
        <time>2012-10-18T14:16:26Z</time>
      </trkpt>
      <trkpt lat="46.30422" lon="-0.599">
        <ele>51</ele>
        <time>2012-10-18T14:16:31Z</time>
      </trkpt>
      <trkpt lat="46.3042" lon="-0.59906">
        <ele>51</ele>
        <time>2012-10-18T14:16:36Z</time>
      </trkpt>
      <trkpt lat="46.30418" lon="-0.59911">
        <ele>50</ele>
        <time>2012-10-18T14:16:41Z</time>
      </trkpt>
      <trkpt lat="46.30417" lon="-0.59917">
        <ele>50</ele>
        <time>2012-10-18T14:16:46Z</time>
      </trkpt>
      <trkpt lat="46.30412" lon="-0.5993">
        <ele>49</ele>
        <time>2012-10-18T14:16:51Z</time>
      </trkpt>
      <trkpt lat="46.30412" lon="-0.59934">
        <ele>49</ele>
        <time>2012-10-18T14:16:56Z</time>
      </trkpt>
      <trkpt lat="46.30413" lon="-0.59932">
        <ele>51</ele>
        <time>2012-10-18T14:17:01Z</time>
      </trkpt>
      <trkpt lat="46.30412" lon="-0.59936">
        <ele>52</ele>
        <time>2012-10-18T14:17:06Z</time>
      </trkpt>
      <trkpt lat="46.30409" lon="-0.59943">
        <ele>54</ele>
        <time>2012-10-18T14:17:11Z</time>
      </trkpt>
      <trkpt lat="46.30407" lon="-0.59953">
        <ele>55</ele>
        <time>2012-10-18T14:17:16Z</time>
      </trkpt>
      <trkpt lat="46.30402" lon="-0.59962">
        <ele>55</ele>
        <time>2012-10-18T14:17:21Z</time>
      </trkpt>
      <trkpt lat="46.304" lon="-0.5997">
        <ele>55</ele>
        <time>2012-10-18T14:17:26Z</time>
      </trkpt>
      <trkpt lat="46.30398" lon="-0.5998">
        <ele>55</ele>
        <time>2012-10-18T14:17:31Z</time>
      </trkpt>
      <trkpt lat="46.30392" lon="-0.59992">
        <ele>55</ele>
        <time>2012-10-18T14:17:36Z</time>
      </trkpt>
      <trkpt lat="46.30389" lon="-0.59999">
        <ele>55</ele>
        <time>2012-10-18T14:17:41Z</time>
      </trkpt>
      <trkpt lat="46.30386" lon="-0.60004">
        <ele>55</ele>
        <time>2012-10-18T14:17:46Z</time>
      </trkpt>
      <trkpt lat="46.30384" lon="-0.60013">
        <ele>54</ele>
        <time>2012-10-18T14:17:51Z</time>
      </trkpt>
      <trkpt lat="46.30383" lon="-0.6002">
        <ele>52</ele>
        <time>2012-10-18T14:17:56Z</time>
      </trkpt>
      <trkpt lat="46.30381" lon="-0.60026">
        <ele>53</ele>
        <time>2012-10-18T14:18:01Z</time>
      </trkpt>
      <trkpt lat="46.30381" lon="-0.60033">
        <ele>52</ele>
        <time>2012-10-18T14:18:06Z</time>
      </trkpt>
      <trkpt lat="46.30377" lon="-0.6004">
        <ele>53</ele>
        <time>2012-10-18T14:18:11Z</time>
      </trkpt>
      <trkpt lat="46.30376" lon="-0.60049">
        <ele>52</ele>
        <time>2012-10-18T14:18:16Z</time>
      </trkpt>
      <trkpt lat="46.30374" lon="-0.60055">
        <ele>53</ele>
        <time>2012-10-18T14:18:21Z</time>
      </trkpt>
      <trkpt lat="46.30372" lon="-0.60062">
        <ele>51</ele>
        <time>2012-10-18T14:18:26Z</time>
      </trkpt>
      <trkpt lat="46.30368" lon="-0.60072">
        <ele>53</ele>
        <time>2012-10-18T14:18:31Z</time>
      </trkpt>
      <trkpt lat="46.30366" lon="-0.6008">
        <ele>54</ele>
        <time>2012-10-18T14:18:36Z</time>
      </trkpt>
      <trkpt lat="46.30365" lon="-0.60083">
        <ele>54</ele>
        <time>2012-10-18T14:18:41Z</time>
      </trkpt>
      <trkpt lat="46.30364" lon="-0.60086">
        <ele>55</ele>
        <time>2012-10-18T14:18:46Z</time>
      </trkpt>
      <trkpt lat="46.30361" lon="-0.60094">
        <ele>56</ele>
        <time>2012-10-18T14:18:51Z</time>
      </trkpt>
      <trkpt lat="46.30359" lon="-0.601">
        <ele>56</ele>
        <time>2012-10-18T14:18:56Z</time>
      </trkpt>
      <trkpt lat="46.30353" lon="-0.60114">
        <ele>59</ele>
        <time>2012-10-18T14:19:01Z</time>
      </trkpt>
      <trkpt lat="46.30352" lon="-0.6012">
        <ele>58</ele>
        <time>2012-10-18T14:19:06Z</time>
      </trkpt>
      <trkpt lat="46.3035" lon="-0.60125">
        <ele>57</ele>
        <time>2012-10-18T14:19:11Z</time>
      </trkpt>
      <trkpt lat="46.30347" lon="-0.60133">
        <ele>57</ele>
        <time>2012-10-18T14:19:16Z</time>
      </trkpt>
      <trkpt lat="46.30347" lon="-0.60135">
        <ele>58</ele>
        <time>2012-10-18T14:19:21Z</time>
      </trkpt>
      <trkpt lat="46.30346" lon="-0.60141">
        <ele>56</ele>
        <time>2012-10-18T14:19:26Z</time>
      </trkpt>
      <trkpt lat="46.30344" lon="-0.60149">
        <ele>54</ele>
        <time>2012-10-18T14:19:31Z</time>
      </trkpt>
      <trkpt lat="46.30343" lon="-0.60155">
        <ele>52</ele>
        <time>2012-10-18T14:19:36Z</time>
      </trkpt>
      <trkpt lat="46.30341" lon="-0.60158">
        <ele>52</ele>
        <time>2012-10-18T14:19:41Z</time>
      </trkpt>
      <trkpt lat="46.30339" lon="-0.60161">
        <ele>52</ele>
        <time>2012-10-18T14:19:46Z</time>
      </trkpt>
      <trkpt lat="46.30337" lon="-0.60169">
        <ele>52</ele>
        <time>2012-10-18T14:19:51Z</time>
      </trkpt>
      <trkpt lat="46.30334" lon="-0.60178">
        <ele>54</ele>
        <time>2012-10-18T14:19:56Z</time>
      </trkpt>
      <trkpt lat="46.30332" lon="-0.60184">
        <ele>56</ele>
        <time>2012-10-18T14:20:01Z</time>
      </trkpt>
      <trkpt lat="46.30327" lon="-0.60197">
        <ele>55</ele>
        <time>2012-10-18T14:20:06Z</time>
      </trkpt>
      <trkpt lat="46.30324" lon="-0.6021">
        <ele>54</ele>
        <time>2012-10-18T14:20:11Z</time>
      </trkpt>
      <trkpt lat="46.3032" lon="-0.60224">
        <ele>54</ele>
        <time>2012-10-18T14:20:16Z</time>
      </trkpt>
      <trkpt lat="46.30318" lon="-0.60232">
        <ele>54</ele>
        <time>2012-10-18T14:20:21Z</time>
      </trkpt>
      <trkpt lat="46.30317" lon="-0.60242">
        <ele>53</ele>
        <time>2012-10-18T14:20:26Z</time>
      </trkpt>
      <trkpt lat="46.30317" lon="-0.6025">
        <ele>53</ele>
        <time>2012-10-18T14:20:31Z</time>
      </trkpt>
      <trkpt lat="46.30315" lon="-0.60259">
        <ele>53</ele>
        <time>2012-10-18T14:20:36Z</time>
      </trkpt>
      <trkpt lat="46.30314" lon="-0.60268">
        <ele>53</ele>
        <time>2012-10-18T14:20:41Z</time>
      </trkpt>
      <trkpt lat="46.30315" lon="-0.60276">
        <ele>53</ele>
        <time>2012-10-18T14:20:46Z</time>
      </trkpt>
      <trkpt lat="46.30312" lon="-0.60285">
        <ele>52</ele>
        <time>2012-10-18T14:20:51Z</time>
      </trkpt>
      <trkpt lat="46.30309" lon="-0.60295">
        <ele>53</ele>
        <time>2012-10-18T14:20:56Z</time>
      </trkpt>
      <trkpt lat="46.30305" lon="-0.60306">
        <ele>51</ele>
        <time>2012-10-18T14:21:01Z</time>
      </trkpt>
      <trkpt lat="46.30304" lon="-0.60314">
        <ele>53</ele>
        <time>2012-10-18T14:21:06Z</time>
      </trkpt>
      <trkpt lat="46.30303" lon="-0.60322">
        <ele>52</ele>
        <time>2012-10-18T14:21:11Z</time>
      </trkpt>
      <trkpt lat="46.30301" lon="-0.60331">
        <ele>53</ele>
        <time>2012-10-18T14:21:16Z</time>
      </trkpt>
      <trkpt lat="46.303" lon="-0.60338">
        <ele>53</ele>
        <time>2012-10-18T14:21:21Z</time>
      </trkpt>
      <trkpt lat="46.30301" lon="-0.60347">
        <ele>52</ele>
        <time>2012-10-18T14:21:26Z</time>
      </trkpt>
      <trkpt lat="46.30303" lon="-0.60349">
        <ele>52</ele>
        <time>2012-10-18T14:21:31Z</time>
      </trkpt>
      <trkpt lat="46.30298" lon="-0.60361">
        <ele>53</ele>
        <time>2012-10-18T14:21:36Z</time>
      </trkpt>
      <trkpt lat="46.30297" lon="-0.6037">
        <ele>53</ele>
        <time>2012-10-18T14:21:41Z</time>
      </trkpt>
      <trkpt lat="46.30295" lon="-0.60379">
        <ele>53</ele>
        <time>2012-10-18T14:21:46Z</time>
      </trkpt>
      <trkpt lat="46.30296" lon="-0.60383">
        <ele>53</ele>
        <time>2012-10-18T14:21:51Z</time>
      </trkpt>
      <trkpt lat="46.30295" lon="-0.6039">
        <ele>55</ele>
        <time>2012-10-18T14:21:56Z</time>
      </trkpt>
      <trkpt lat="46.30295" lon="-0.60398">
        <ele>56</ele>
        <time>2012-10-18T14:22:01Z</time>
      </trkpt>
      <trkpt lat="46.30295" lon="-0.60403">
        <ele>55</ele>
        <time>2012-10-18T14:22:06Z</time>
      </trkpt>
      <trkpt lat="46.30294" lon="-0.60411">
        <ele>54</ele>
        <time>2012-10-18T14:22:11Z</time>
      </trkpt>
      <trkpt lat="46.30294" lon="-0.60418">
        <ele>52</ele>
        <time>2012-10-18T14:22:16Z</time>
      </trkpt>
      <trkpt lat="46.30291" lon="-0.60427">
        <ele>53</ele>
        <time>2012-10-18T14:22:21Z</time>
      </trkpt>
      <trkpt lat="46.3029" lon="-0.60434">
        <ele>52</ele>
        <time>2012-10-18T14:22:26Z</time>
      </trkpt>
      <trkpt lat="46.30289" lon="-0.6044">
        <ele>53</ele>
        <time>2012-10-18T14:22:31Z</time>
      </trkpt>
      <trkpt lat="46.30287" lon="-0.60449">
        <ele>53</ele>
        <time>2012-10-18T14:22:36Z</time>
      </trkpt>
      <trkpt lat="46.30286" lon="-0.60459">
        <ele>52</ele>
        <time>2012-10-18T14:22:41Z</time>
      </trkpt>
      <trkpt lat="46.30286" lon="-0.60464">
        <ele>51</ele>
        <time>2012-10-18T14:22:46Z</time>
      </trkpt>
      <trkpt lat="46.30287" lon="-0.6047">
        <ele>50</ele>
        <time>2012-10-18T14:22:51Z</time>
      </trkpt>
      <trkpt lat="46.30286" lon="-0.60476">
        <ele>49</ele>
        <time>2012-10-18T14:22:56Z</time>
      </trkpt>
      <trkpt lat="46.30287" lon="-0.60483">
        <ele>49</ele>
        <time>2012-10-18T14:23:01Z</time>
      </trkpt>
      <trkpt lat="46.30285" lon="-0.60492">
        <ele>49</ele>
        <time>2012-10-18T14:23:06Z</time>
      </trkpt>
      <trkpt lat="46.30282" lon="-0.60502">
        <ele>50</ele>
        <time>2012-10-18T14:23:11Z</time>
      </trkpt>
      <trkpt lat="46.30281" lon="-0.6051">
        <ele>50</ele>
        <time>2012-10-18T14:23:16Z</time>
      </trkpt>
      <trkpt lat="46.30279" lon="-0.60517">
        <ele>51</ele>
        <time>2012-10-18T14:23:21Z</time>
      </trkpt>
      <trkpt lat="46.3028" lon="-0.60524">
        <ele>52</ele>
        <time>2012-10-18T14:23:26Z</time>
      </trkpt>
      <trkpt lat="46.3028" lon="-0.60529">
        <ele>53</ele>
        <time>2012-10-18T14:23:31Z</time>
      </trkpt>
      <trkpt lat="46.30277" lon="-0.60539">
        <ele>53</ele>
        <time>2012-10-18T14:23:36Z</time>
      </trkpt>
      <trkpt lat="46.30277" lon="-0.60547">
        <ele>52</ele>
        <time>2012-10-18T14:23:41Z</time>
      </trkpt>
      <trkpt lat="46.30276" lon="-0.60555">
        <ele>51</ele>
        <time>2012-10-18T14:23:46Z</time>
      </trkpt>
      <trkpt lat="46.30275" lon="-0.60562">
        <ele>51</ele>
        <time>2012-10-18T14:23:51Z</time>
      </trkpt>
      <trkpt lat="46.30274" lon="-0.6057">
        <ele>50</ele>
        <time>2012-10-18T14:23:56Z</time>
      </trkpt>
      <trkpt lat="46.30272" lon="-0.60578">
        <ele>50</ele>
        <time>2012-10-18T14:24:01Z</time>
      </trkpt>
      <trkpt lat="46.30271" lon="-0.60586">
        <ele>51</ele>
        <time>2012-10-18T14:24:06Z</time>
      </trkpt>
      <trkpt lat="46.30269" lon="-0.60594">
        <ele>50</ele>
        <time>2012-10-18T14:24:11Z</time>
      </trkpt>
      <trkpt lat="46.30269" lon="-0.60601">
        <ele>50</ele>
        <time>2012-10-18T14:24:16Z</time>
      </trkpt>
      <trkpt lat="46.30267" lon="-0.60609">
        <ele>49</ele>
        <time>2012-10-18T14:24:21Z</time>
      </trkpt>
      <trkpt lat="46.30266" lon="-0.60619">
        <ele>48</ele>
        <time>2012-10-18T14:24:26Z</time>
      </trkpt>
      <trkpt lat="46.30265" lon="-0.60627">
        <ele>48</ele>
        <time>2012-10-18T14:24:31Z</time>
      </trkpt>
      <trkpt lat="46.30264" lon="-0.60636">
        <ele>49</ele>
        <time>2012-10-18T14:24:36Z</time>
      </trkpt>
      <trkpt lat="46.30263" lon="-0.60644">
        <ele>49</ele>
        <time>2012-10-18T14:24:41Z</time>
      </trkpt>
      <trkpt lat="46.30261" lon="-0.60652">
        <ele>50</ele>
        <time>2012-10-18T14:24:46Z</time>
      </trkpt>
      <trkpt lat="46.30261" lon="-0.60658">
        <ele>50</ele>
        <time>2012-10-18T14:24:51Z</time>
      </trkpt>
      <trkpt lat="46.3026" lon="-0.60667">
        <ele>50</ele>
        <time>2012-10-18T14:24:56Z</time>
      </trkpt>
      <trkpt lat="46.30259" lon="-0.60674">
        <ele>50</ele>
        <time>2012-10-18T14:25:01Z</time>
      </trkpt>
      <trkpt lat="46.30257" lon="-0.60684">
        <ele>52</ele>
        <time>2012-10-18T14:25:06Z</time>
      </trkpt>
      <trkpt lat="46.30256" lon="-0.60691">
        <ele>54</ele>
        <time>2012-10-18T14:25:11Z</time>
      </trkpt>
      <trkpt lat="46.30255" lon="-0.60696">
        <ele>54</ele>
        <time>2012-10-18T14:25:16Z</time>
      </trkpt>
      <trkpt lat="46.30253" lon="-0.60704">
        <ele>54</ele>
        <time>2012-10-18T14:25:21Z</time>
      </trkpt>
      <trkpt lat="46.30252" lon="-0.60714">
        <ele>53</ele>
        <time>2012-10-18T14:25:26Z</time>
      </trkpt>
      <trkpt lat="46.30252" lon="-0.6072">
        <ele>53</ele>
        <time>2012-10-18T14:25:31Z</time>
      </trkpt>
      <trkpt lat="46.30251" lon="-0.60728">
        <ele>51</ele>
        <time>2012-10-18T14:25:36Z</time>
      </trkpt>
      <trkpt lat="46.3025" lon="-0.60736">
        <ele>52</ele>
        <time>2012-10-18T14:25:41Z</time>
      </trkpt>
      <trkpt lat="46.30248" lon="-0.60743">
        <ele>53</ele>
        <time>2012-10-18T14:25:46Z</time>
      </trkpt>
      <trkpt lat="46.30249" lon="-0.60749">
        <ele>52</ele>
        <time>2012-10-18T14:25:51Z</time>
      </trkpt>
      <trkpt lat="46.30247" lon="-0.60758">
        <ele>53</ele>
        <time>2012-10-18T14:25:56Z</time>
      </trkpt>
      <trkpt lat="46.30246" lon="-0.60765">
        <ele>52</ele>
        <time>2012-10-18T14:26:01Z</time>
      </trkpt>
      <trkpt lat="46.30244" lon="-0.60772">
        <ele>51</ele>
        <time>2012-10-18T14:26:06Z</time>
      </trkpt>
      <trkpt lat="46.30243" lon="-0.6078">
        <ele>52</ele>
        <time>2012-10-18T14:26:11Z</time>
      </trkpt>
      <trkpt lat="46.30242" lon="-0.60791">
        <ele>54</ele>
        <time>2012-10-18T14:26:16Z</time>
      </trkpt>
      <trkpt lat="46.3024" lon="-0.60801">
        <ele>54</ele>
        <time>2012-10-18T14:26:21Z</time>
      </trkpt>
      <trkpt lat="46.3024" lon="-0.60807">
        <ele>54</ele>
        <time>2012-10-18T14:26:26Z</time>
      </trkpt>
      <trkpt lat="46.30239" lon="-0.60813">
        <ele>53</ele>
        <time>2012-10-18T14:26:31Z</time>
      </trkpt>
      <trkpt lat="46.30237" lon="-0.6082">
        <ele>55</ele>
        <time>2012-10-18T14:26:36Z</time>
      </trkpt>
      <trkpt lat="46.30237" lon="-0.60829">
        <ele>56</ele>
        <time>2012-10-18T14:26:41Z</time>
      </trkpt>
      <trkpt lat="46.30235" lon="-0.60837">
        <ele>56</ele>
        <time>2012-10-18T14:26:46Z</time>
      </trkpt>
      <trkpt lat="46.30232" lon="-0.60844">
        <ele>56</ele>
        <time>2012-10-18T14:26:51Z</time>
      </trkpt>
      <trkpt lat="46.30231" lon="-0.60852">
        <ele>52</ele>
        <time>2012-10-18T14:26:56Z</time>
      </trkpt>
      <trkpt lat="46.30231" lon="-0.6086">
        <ele>52</ele>
        <time>2012-10-18T14:27:01Z</time>
      </trkpt>
      <trkpt lat="46.3023" lon="-0.60868">
        <ele>52</ele>
        <time>2012-10-18T14:27:06Z</time>
      </trkpt>
      <trkpt lat="46.30229" lon="-0.60877">
        <ele>52</ele>
        <time>2012-10-18T14:27:11Z</time>
      </trkpt>
      <trkpt lat="46.30229" lon="-0.60884">
        <ele>52</ele>
        <time>2012-10-18T14:27:16Z</time>
      </trkpt>
      <trkpt lat="46.30228" lon="-0.60891">
        <ele>53</ele>
        <time>2012-10-18T14:27:21Z</time>
      </trkpt>
      <trkpt lat="46.30227" lon="-0.609">
        <ele>55</ele>
        <time>2012-10-18T14:27:26Z</time>
      </trkpt>
      <trkpt lat="46.30224" lon="-0.60911">
        <ele>56</ele>
        <time>2012-10-18T14:27:31Z</time>
      </trkpt>
      <trkpt lat="46.30224" lon="-0.60918">
        <ele>55</ele>
        <time>2012-10-18T14:27:36Z</time>
      </trkpt>
      <trkpt lat="46.30223" lon="-0.60925">
        <ele>54</ele>
        <time>2012-10-18T14:27:41Z</time>
      </trkpt>
      <trkpt lat="46.30221" lon="-0.60935">
        <ele>55</ele>
        <time>2012-10-18T14:27:46Z</time>
      </trkpt>
      <trkpt lat="46.30218" lon="-0.60943">
        <ele>55</ele>
        <time>2012-10-18T14:27:51Z</time>
      </trkpt>
      <trkpt lat="46.30217" lon="-0.60952">
        <ele>54</ele>
        <time>2012-10-18T14:27:56Z</time>
      </trkpt>
      <trkpt lat="46.30216" lon="-0.60962">
        <ele>54</ele>
        <time>2012-10-18T14:28:01Z</time>
      </trkpt>
      <trkpt lat="46.30216" lon="-0.60968">
        <ele>54</ele>
        <time>2012-10-18T14:28:06Z</time>
      </trkpt>
      <trkpt lat="46.30214" lon="-0.60975">
        <ele>55</ele>
        <time>2012-10-18T14:28:11Z</time>
      </trkpt>
      <trkpt lat="46.30212" lon="-0.60981">
        <ele>54</ele>
        <time>2012-10-18T14:28:16Z</time>
      </trkpt>
      <trkpt lat="46.30211" lon="-0.60982">
        <ele>54</ele>
        <time>2012-10-18T14:28:21Z</time>
      </trkpt>
      <trkpt lat="46.30206" lon="-0.60983">
        <ele>55</ele>
        <time>2012-10-18T14:28:26Z</time>
      </trkpt>
      <trkpt lat="46.30201" lon="-0.60984">
        <ele>55</ele>
        <time>2012-10-18T14:28:31Z</time>
      </trkpt>
      <trkpt lat="46.30193" lon="-0.60979">
        <ele>57</ele>
        <time>2012-10-18T14:28:36Z</time>
      </trkpt>
      <trkpt lat="46.30187" lon="-0.6098">
        <ele>58</ele>
        <time>2012-10-18T14:28:41Z</time>
      </trkpt>
      <trkpt lat="46.30181" lon="-0.60981">
        <ele>62</ele>
        <time>2012-10-18T14:28:46Z</time>
      </trkpt>
      <trkpt lat="46.30177" lon="-0.60984">
        <ele>62</ele>
        <time>2012-10-18T14:28:51Z</time>
      </trkpt>
      <trkpt lat="46.3017" lon="-0.6098">
        <ele>67</ele>
        <time>2012-10-18T14:28:56Z</time>
      </trkpt>
      <trkpt lat="46.30165" lon="-0.60983">
        <ele>69</ele>
        <time>2012-10-18T14:29:01Z</time>
      </trkpt>
      <trkpt lat="46.3016" lon="-0.60985">
        <ele>66</ele>
        <time>2012-10-18T14:29:06Z</time>
      </trkpt>
      <trkpt lat="46.30156" lon="-0.60989">
        <ele>66</ele>
        <time>2012-10-18T14:29:11Z</time>
      </trkpt>
      <trkpt lat="46.3015" lon="-0.60992">
        <ele>64</ele>
        <time>2012-10-18T14:29:16Z</time>
      </trkpt>
      <trkpt lat="46.30146" lon="-0.60997">
        <ele>60</ele>
        <time>2012-10-18T14:29:21Z</time>
      </trkpt>
      <trkpt lat="46.3014" lon="-0.61005">
        <ele>59</ele>
        <time>2012-10-18T14:29:26Z</time>
      </trkpt>
      <trkpt lat="46.30132" lon="-0.61004">
        <ele>57</ele>
        <time>2012-10-18T14:29:31Z</time>
      </trkpt>
      <trkpt lat="46.30127" lon="-0.61004">
        <ele>55</ele>
        <time>2012-10-18T14:29:36Z</time>
      </trkpt>
      <trkpt lat="46.30118" lon="-0.61003">
        <ele>56</ele>
        <time>2012-10-18T14:29:41Z</time>
      </trkpt>
      <trkpt lat="46.30116" lon="-0.61005">
        <ele>56</ele>
        <time>2012-10-18T14:29:46Z</time>
      </trkpt>
      <trkpt lat="46.30112" lon="-0.61013">
        <ele>54</ele>
        <time>2012-10-18T14:29:51Z</time>
      </trkpt>
      <trkpt lat="46.30106" lon="-0.61018">
        <ele>52</ele>
        <time>2012-10-18T14:29:56Z</time>
      </trkpt>
      <trkpt lat="46.30102" lon="-0.61015">
        <ele>50</ele>
        <time>2012-10-18T14:30:01Z</time>
      </trkpt>
      <trkpt lat="46.30096" lon="-0.61019">
        <ele>50</ele>
        <time>2012-10-18T14:30:06Z</time>
      </trkpt>
      <trkpt lat="46.30091" lon="-0.61025">
        <ele>48</ele>
        <time>2012-10-18T14:30:11Z</time>
      </trkpt>
      <trkpt lat="46.30082" lon="-0.61021">
        <ele>54</ele>
        <time>2012-10-18T14:30:16Z</time>
      </trkpt>
      <trkpt lat="46.30077" lon="-0.6102">
        <ele>56</ele>
        <time>2012-10-18T14:30:21Z</time>
      </trkpt>
      <trkpt lat="46.30074" lon="-0.61025">
        <ele>54</ele>
        <time>2012-10-18T14:30:26Z</time>
      </trkpt>
      <trkpt lat="46.3007" lon="-0.61027">
        <ele>53</ele>
        <time>2012-10-18T14:30:31Z</time>
      </trkpt>
      <trkpt lat="46.30064" lon="-0.61029">
        <ele>52</ele>
        <time>2012-10-18T14:30:36Z</time>
      </trkpt>
      <trkpt lat="46.30053" lon="-0.61025">
        <ele>55</ele>
        <time>2012-10-18T14:30:41Z</time>
      </trkpt>
      <trkpt lat="46.30052" lon="-0.61029">
        <ele>56</ele>
        <time>2012-10-18T14:30:46Z</time>
      </trkpt>
      <trkpt lat="46.30046" lon="-0.61032">
        <ele>55</ele>
        <time>2012-10-18T14:30:51Z</time>
      </trkpt>
      <trkpt lat="46.30039" lon="-0.6103">
        <ele>59</ele>
        <time>2012-10-18T14:30:56Z</time>
      </trkpt>
      <trkpt lat="46.30033" lon="-0.6103">
        <ele>60</ele>
        <time>2012-10-18T14:31:01Z</time>
      </trkpt>
      <trkpt lat="46.30028" lon="-0.6103">
        <ele>62</ele>
        <time>2012-10-18T14:31:06Z</time>
      </trkpt>
      <trkpt lat="46.30027" lon="-0.61034">
        <ele>60</ele>
        <time>2012-10-18T14:31:11Z</time>
      </trkpt>
      <trkpt lat="46.30018" lon="-0.61035">
        <ele>59</ele>
        <time>2012-10-18T14:31:16Z</time>
      </trkpt>
      <trkpt lat="46.30015" lon="-0.61037">
        <ele>60</ele>
        <time>2012-10-18T14:31:21Z</time>
      </trkpt>
      <trkpt lat="46.30009" lon="-0.61039">
        <ele>57</ele>
        <time>2012-10-18T14:31:26Z</time>
      </trkpt>
      <trkpt lat="46.30003" lon="-0.61042">
        <ele>60</ele>
        <time>2012-10-18T14:31:31Z</time>
      </trkpt>
      <trkpt lat="46.29998" lon="-0.6104">
        <ele>63</ele>
        <time>2012-10-18T14:31:36Z</time>
      </trkpt>
      <trkpt lat="46.29992" lon="-0.61042">
        <ele>63</ele>
        <time>2012-10-18T14:31:41Z</time>
      </trkpt>
      <trkpt lat="46.29987" lon="-0.61044">
        <ele>65</ele>
        <time>2012-10-18T14:31:46Z</time>
      </trkpt>
      <trkpt lat="46.2998" lon="-0.61044">
        <ele>64</ele>
        <time>2012-10-18T14:31:51Z</time>
      </trkpt>
      <trkpt lat="46.29976" lon="-0.61048">
        <ele>64</ele>
        <time>2012-10-18T14:31:56Z</time>
      </trkpt>
      <trkpt lat="46.2997" lon="-0.61047">
        <ele>63</ele>
        <time>2012-10-18T14:32:01Z</time>
      </trkpt>
      <trkpt lat="46.29964" lon="-0.6105">
        <ele>63</ele>
        <time>2012-10-18T14:32:06Z</time>
      </trkpt>
      <trkpt lat="46.29956" lon="-0.61054">
        <ele>61</ele>
        <time>2012-10-18T14:32:11Z</time>
      </trkpt>
      <trkpt lat="46.29951" lon="-0.61056">
        <ele>61</ele>
        <time>2012-10-18T14:32:16Z</time>
      </trkpt>
      <trkpt lat="46.29946" lon="-0.61062">
        <ele>60</ele>
        <time>2012-10-18T14:32:21Z</time>
      </trkpt>
      <trkpt lat="46.2994" lon="-0.61065">
        <ele>59</ele>
        <time>2012-10-18T14:32:26Z</time>
      </trkpt>
      <trkpt lat="46.29937" lon="-0.61064">
        <ele>59</ele>
        <time>2012-10-18T14:32:31Z</time>
      </trkpt>
      <trkpt lat="46.29932" lon="-0.61065">
        <ele>59</ele>
        <time>2012-10-18T14:32:36Z</time>
      </trkpt>
      <trkpt lat="46.29926" lon="-0.61066">
        <ele>59</ele>
        <time>2012-10-18T14:32:41Z</time>
      </trkpt>
      <trkpt lat="46.29922" lon="-0.61066">
        <ele>63</ele>
        <time>2012-10-18T14:32:46Z</time>
      </trkpt>
      <trkpt lat="46.29915" lon="-0.61067">
        <ele>62</ele>
        <time>2012-10-18T14:32:51Z</time>
      </trkpt>
      <trkpt lat="46.29911" lon="-0.61075">
        <ele>61</ele>
        <time>2012-10-18T14:32:56Z</time>
      </trkpt>
      <trkpt lat="46.29907" lon="-0.61079">
        <ele>60</ele>
        <time>2012-10-18T14:33:01Z</time>
      </trkpt>
      <trkpt lat="46.299" lon="-0.61079">
        <ele>61</ele>
        <time>2012-10-18T14:33:06Z</time>
      </trkpt>
      <trkpt lat="46.29891" lon="-0.61078">
        <ele>63</ele>
        <time>2012-10-18T14:33:11Z</time>
      </trkpt>
      <trkpt lat="46.29885" lon="-0.61076">
        <ele>64</ele>
        <time>2012-10-18T14:33:16Z</time>
      </trkpt>
      <trkpt lat="46.29881" lon="-0.61081">
        <ele>63</ele>
        <time>2012-10-18T14:33:21Z</time>
      </trkpt>
      <trkpt lat="46.29874" lon="-0.61082">
        <ele>63</ele>
        <time>2012-10-18T14:33:26Z</time>
      </trkpt>
      <trkpt lat="46.29873" lon="-0.61085">
        <ele>64</ele>
        <time>2012-10-18T14:33:31Z</time>
      </trkpt>
      <trkpt lat="46.29864" lon="-0.61087">
        <ele>64</ele>
        <time>2012-10-18T14:33:36Z</time>
      </trkpt>
      <trkpt lat="46.29859" lon="-0.61089">
        <ele>63</ele>
        <time>2012-10-18T14:33:41Z</time>
      </trkpt>
      <trkpt lat="46.29855" lon="-0.61092">
        <ele>63</ele>
        <time>2012-10-18T14:33:46Z</time>
      </trkpt>
      <trkpt lat="46.29847" lon="-0.61093">
        <ele>65</ele>
        <time>2012-10-18T14:33:51Z</time>
      </trkpt>
      <trkpt lat="46.2984" lon="-0.61093">
        <ele>65</ele>
        <time>2012-10-18T14:33:56Z</time>
      </trkpt>
      <trkpt lat="46.29835" lon="-0.61096">
        <ele>67</ele>
        <time>2012-10-18T14:34:01Z</time>
      </trkpt>
      <trkpt lat="46.29829" lon="-0.61099">
        <ele>68</ele>
        <time>2012-10-18T14:34:06Z</time>
      </trkpt>
      <trkpt lat="46.29824" lon="-0.61098">
        <ele>67</ele>
        <time>2012-10-18T14:34:11Z</time>
      </trkpt>
      <trkpt lat="46.29821" lon="-0.61098">
        <ele>66</ele>
        <time>2012-10-18T14:34:16Z</time>
      </trkpt>
      <trkpt lat="46.29815" lon="-0.61101">
        <ele>67</ele>
        <time>2012-10-18T14:34:21Z</time>
      </trkpt>
      <trkpt lat="46.29811" lon="-0.61101">
        <ele>70</ele>
        <time>2012-10-18T14:34:26Z</time>
      </trkpt>
      <trkpt lat="46.29807" lon="-0.61102">
        <ele>73</ele>
        <time>2012-10-18T14:34:31Z</time>
      </trkpt>
      <trkpt lat="46.29804" lon="-0.61107">
        <ele>72</ele>
        <time>2012-10-18T14:34:36Z</time>
      </trkpt>
      <trkpt lat="46.29797" lon="-0.61108">
        <ele>71</ele>
        <time>2012-10-18T14:34:41Z</time>
      </trkpt>
      <trkpt lat="46.29788" lon="-0.61114">
        <ele>68</ele>
        <time>2012-10-18T14:34:46Z</time>
      </trkpt>
      <trkpt lat="46.29782" lon="-0.61117">
        <ele>66</ele>
        <time>2012-10-18T14:34:51Z</time>
      </trkpt>
      <trkpt lat="46.29778" lon="-0.61115">
        <ele>66</ele>
        <time>2012-10-18T14:34:56Z</time>
      </trkpt>
      <trkpt lat="46.29774" lon="-0.61118">
        <ele>64</ele>
        <time>2012-10-18T14:35:01Z</time>
      </trkpt>
      <trkpt lat="46.29767" lon="-0.61116">
        <ele>62</ele>
        <time>2012-10-18T14:35:06Z</time>
      </trkpt>
      <trkpt lat="46.29759" lon="-0.61113">
        <ele>63</ele>
        <time>2012-10-18T14:35:11Z</time>
      </trkpt>
      <trkpt lat="46.29755" lon="-0.61111">
        <ele>63</ele>
        <time>2012-10-18T14:35:16Z</time>
      </trkpt>
      <trkpt lat="46.2975" lon="-0.61112">
        <ele>62</ele>
        <time>2012-10-18T14:35:21Z</time>
      </trkpt>
      <trkpt lat="46.29745" lon="-0.6111">
        <ele>64</ele>
        <time>2012-10-18T14:35:26Z</time>
      </trkpt>
      <trkpt lat="46.2974" lon="-0.61107">
        <ele>65</ele>
        <time>2012-10-18T14:35:31Z</time>
      </trkpt>
      <trkpt lat="46.29735" lon="-0.61107">
        <ele>64</ele>
        <time>2012-10-18T14:35:36Z</time>
      </trkpt>
      <trkpt lat="46.29731" lon="-0.61106">
        <ele>61</ele>
        <time>2012-10-18T14:35:41Z</time>
      </trkpt>
      <trkpt lat="46.29726" lon="-0.61104">
        <ele>61</ele>
        <time>2012-10-18T14:35:46Z</time>
      </trkpt>
      <trkpt lat="46.29721" lon="-0.61101">
        <ele>60</ele>
        <time>2012-10-18T14:35:51Z</time>
      </trkpt>
      <trkpt lat="46.29714" lon="-0.611">
        <ele>59</ele>
        <time>2012-10-18T14:35:56Z</time>
      </trkpt>
      <trkpt lat="46.29711" lon="-0.611">
        <ele>58</ele>
        <time>2012-10-18T14:36:01Z</time>
      </trkpt>
      <trkpt lat="46.29705" lon="-0.61099">
        <ele>57</ele>
        <time>2012-10-18T14:36:06Z</time>
      </trkpt>
      <trkpt lat="46.29698" lon="-0.61099">
        <ele>55</ele>
        <time>2012-10-18T14:36:11Z</time>
      </trkpt>
      <trkpt lat="46.29693" lon="-0.61096">
        <ele>56</ele>
        <time>2012-10-18T14:36:16Z</time>
      </trkpt>
      <trkpt lat="46.29687" lon="-0.61093">
        <ele>57</ele>
        <time>2012-10-18T14:36:21Z</time>
      </trkpt>
      <trkpt lat="46.29683" lon="-0.61094">
        <ele>58</ele>
        <time>2012-10-18T14:36:26Z</time>
      </trkpt>
      <trkpt lat="46.29678" lon="-0.61092">
        <ele>58</ele>
        <time>2012-10-18T14:36:31Z</time>
      </trkpt>
      <trkpt lat="46.29672" lon="-0.61092">
        <ele>57</ele>
        <time>2012-10-18T14:36:36Z</time>
      </trkpt>
      <trkpt lat="46.29668" lon="-0.61088">
        <ele>56</ele>
        <time>2012-10-18T14:36:41Z</time>
      </trkpt>
      <trkpt lat="46.29662" lon="-0.61087">
        <ele>55</ele>
        <time>2012-10-18T14:36:46Z</time>
      </trkpt>
      <trkpt lat="46.29655" lon="-0.61085">
        <ele>54</ele>
        <time>2012-10-18T14:36:51Z</time>
      </trkpt>
      <trkpt lat="46.2965" lon="-0.61083">
        <ele>53</ele>
        <time>2012-10-18T14:36:56Z</time>
      </trkpt>
      <trkpt lat="46.29645" lon="-0.61081">
        <ele>53</ele>
        <time>2012-10-18T14:37:01Z</time>
      </trkpt>
      <trkpt lat="46.29639" lon="-0.61079">
        <ele>51</ele>
        <time>2012-10-18T14:37:06Z</time>
      </trkpt>
      <trkpt lat="46.29631" lon="-0.61076">
        <ele>53</ele>
        <time>2012-10-18T14:37:11Z</time>
      </trkpt>
      <trkpt lat="46.29627" lon="-0.61073">
        <ele>53</ele>
        <time>2012-10-18T14:37:16Z</time>
      </trkpt>
      <trkpt lat="46.29622" lon="-0.61072">
        <ele>54</ele>
        <time>2012-10-18T14:37:21Z</time>
      </trkpt>
      <trkpt lat="46.29617" lon="-0.61073">
        <ele>52</ele>
        <time>2012-10-18T14:37:26Z</time>
      </trkpt>
      <trkpt lat="46.2961" lon="-0.6107">
        <ele>53</ele>
        <time>2012-10-18T14:37:31Z</time>
      </trkpt>
      <trkpt lat="46.29605" lon="-0.61067">
        <ele>53</ele>
        <time>2012-10-18T14:37:36Z</time>
      </trkpt>
      <trkpt lat="46.296" lon="-0.61065">
        <ele>52</ele>
        <time>2012-10-18T14:37:41Z</time>
      </trkpt>
      <trkpt lat="46.29595" lon="-0.61065">
        <ele>49</ele>
        <time>2012-10-18T14:37:46Z</time>
      </trkpt>
      <trkpt lat="46.29591" lon="-0.61065">
        <ele>49</ele>
        <time>2012-10-18T14:37:51Z</time>
      </trkpt>
      <trkpt lat="46.29587" lon="-0.61064">
        <ele>48</ele>
        <time>2012-10-18T14:37:56Z</time>
      </trkpt>
      <trkpt lat="46.29583" lon="-0.61063">
        <ele>48</ele>
        <time>2012-10-18T14:38:01Z</time>
      </trkpt>
      <trkpt lat="46.29578" lon="-0.6106">
        <ele>49</ele>
        <time>2012-10-18T14:38:06Z</time>
      </trkpt>
      <trkpt lat="46.29571" lon="-0.61055">
        <ele>50</ele>
        <time>2012-10-18T14:38:11Z</time>
      </trkpt>
      <trkpt lat="46.29566" lon="-0.61055">
        <ele>50</ele>
        <time>2012-10-18T14:38:16Z</time>
      </trkpt>
      <trkpt lat="46.29561" lon="-0.61052">
        <ele>50</ele>
        <time>2012-10-18T14:38:21Z</time>
      </trkpt>
      <trkpt lat="46.29553" lon="-0.61048">
        <ele>52</ele>
        <time>2012-10-18T14:38:26Z</time>
      </trkpt>
      <trkpt lat="46.29547" lon="-0.61049">
        <ele>51</ele>
        <time>2012-10-18T14:38:31Z</time>
      </trkpt>
      <trkpt lat="46.29543" lon="-0.6105">
        <ele>50</ele>
        <time>2012-10-18T14:38:36Z</time>
      </trkpt>
      <trkpt lat="46.29537" lon="-0.61045">
        <ele>50</ele>
        <time>2012-10-18T14:38:41Z</time>
      </trkpt>
      <trkpt lat="46.29531" lon="-0.61042">
        <ele>53</ele>
        <time>2012-10-18T14:38:46Z</time>
      </trkpt>
      <trkpt lat="46.29525" lon="-0.61041">
        <ele>53</ele>
        <time>2012-10-18T14:38:51Z</time>
      </trkpt>
      <trkpt lat="46.29519" lon="-0.61038">
        <ele>54</ele>
        <time>2012-10-18T14:38:56Z</time>
      </trkpt>
      <trkpt lat="46.29512" lon="-0.61036">
        <ele>55</ele>
        <time>2012-10-18T14:39:01Z</time>
      </trkpt>
      <trkpt lat="46.29508" lon="-0.61036">
        <ele>53</ele>
        <time>2012-10-18T14:39:06Z</time>
      </trkpt>
      <trkpt lat="46.29503" lon="-0.61033">
        <ele>55</ele>
        <time>2012-10-18T14:39:11Z</time>
      </trkpt>
      <trkpt lat="46.29497" lon="-0.61031">
        <ele>54</ele>
        <time>2012-10-18T14:39:16Z</time>
      </trkpt>
      <trkpt lat="46.29492" lon="-0.61032">
        <ele>51</ele>
        <time>2012-10-18T14:39:21Z</time>
      </trkpt>
      <trkpt lat="46.29487" lon="-0.61033">
        <ele>49</ele>
        <time>2012-10-18T14:39:26Z</time>
      </trkpt>
      <trkpt lat="46.2948" lon="-0.61028">
        <ele>50</ele>
        <time>2012-10-18T14:39:31Z</time>
      </trkpt>
      <trkpt lat="46.29477" lon="-0.61029">
        <ele>50</ele>
        <time>2012-10-18T14:39:36Z</time>
      </trkpt>
      <trkpt lat="46.29471" lon="-0.6103">
        <ele>50</ele>
        <time>2012-10-18T14:39:41Z</time>
      </trkpt>
      <trkpt lat="46.29464" lon="-0.61027">
        <ele>51</ele>
        <time>2012-10-18T14:39:46Z</time>
      </trkpt>
      <trkpt lat="46.29458" lon="-0.61025">
        <ele>51</ele>
        <time>2012-10-18T14:39:51Z</time>
      </trkpt>
      <trkpt lat="46.29457" lon="-0.61026">
        <ele>48</ele>
        <time>2012-10-18T14:39:56Z</time>
      </trkpt>
      <trkpt lat="46.29457" lon="-0.61026">
        <ele>49</ele>
        <time>2012-10-18T14:40:01Z</time>
      </trkpt>
      <trkpt lat="46.29454" lon="-0.61023">
        <ele>49</ele>
        <time>2012-10-18T14:40:06Z</time>
      </trkpt>
      <trkpt lat="46.29449" lon="-0.61022">
        <ele>47</ele>
        <time>2012-10-18T14:40:11Z</time>
      </trkpt>
      <trkpt lat="46.29443" lon="-0.61023">
        <ele>49</ele>
        <time>2012-10-18T14:40:16Z</time>
      </trkpt>
      <trkpt lat="46.29438" lon="-0.6102">
        <ele>47</ele>
        <time>2012-10-18T14:40:21Z</time>
      </trkpt>
      <trkpt lat="46.29433" lon="-0.61021">
        <ele>47</ele>
        <time>2012-10-18T14:40:26Z</time>
      </trkpt>
      <trkpt lat="46.29424" lon="-0.61015">
        <ele>48</ele>
        <time>2012-10-18T14:40:31Z</time>
      </trkpt>
      <trkpt lat="46.29418" lon="-0.61015">
        <ele>50</ele>
        <time>2012-10-18T14:40:36Z</time>
      </trkpt>
      <trkpt lat="46.29414" lon="-0.61015">
        <ele>51</ele>
        <time>2012-10-18T14:40:41Z</time>
      </trkpt>
      <trkpt lat="46.29408" lon="-0.6101">
        <ele>52</ele>
        <time>2012-10-18T14:40:46Z</time>
      </trkpt>
      <trkpt lat="46.29404" lon="-0.61007">
        <ele>50</ele>
        <time>2012-10-18T14:40:51Z</time>
      </trkpt>
      <trkpt lat="46.29399" lon="-0.61006">
        <ele>50</ele>
        <time>2012-10-18T14:40:56Z</time>
      </trkpt>
      <trkpt lat="46.29396" lon="-0.61006">
        <ele>50</ele>
        <time>2012-10-18T14:41:01Z</time>
      </trkpt>
      <trkpt lat="46.29391" lon="-0.61006">
        <ele>50</ele>
        <time>2012-10-18T14:41:06Z</time>
      </trkpt>
      <trkpt lat="46.29385" lon="-0.61005">
        <ele>51</ele>
        <time>2012-10-18T14:41:11Z</time>
      </trkpt>
      <trkpt lat="46.2938" lon="-0.61001">
        <ele>52</ele>
        <time>2012-10-18T14:41:16Z</time>
      </trkpt>
      <trkpt lat="46.29375" lon="-0.61">
        <ele>52</ele>
        <time>2012-10-18T14:41:21Z</time>
      </trkpt>
      <trkpt lat="46.29369" lon="-0.61001">
        <ele>52</ele>
        <time>2012-10-18T14:41:26Z</time>
      </trkpt>
      <trkpt lat="46.29362" lon="-0.60999">
        <ele>51</ele>
        <time>2012-10-18T14:41:31Z</time>
      </trkpt>
      <trkpt lat="46.2936" lon="-0.60997">
        <ele>49</ele>
        <time>2012-10-18T14:41:36Z</time>
      </trkpt>
      <trkpt lat="46.29355" lon="-0.60995">
        <ele>47</ele>
        <time>2012-10-18T14:41:41Z</time>
      </trkpt>
      <trkpt lat="46.2935" lon="-0.60995">
        <ele>46</ele>
        <time>2012-10-18T14:41:46Z</time>
      </trkpt>
      <trkpt lat="46.29344" lon="-0.60993">
        <ele>49</ele>
        <time>2012-10-18T14:41:51Z</time>
      </trkpt>
      <trkpt lat="46.29338" lon="-0.60993">
        <ele>50</ele>
        <time>2012-10-18T14:41:56Z</time>
      </trkpt>
      <trkpt lat="46.29332" lon="-0.6099">
        <ele>53</ele>
        <time>2012-10-18T14:42:01Z</time>
      </trkpt>
      <trkpt lat="46.29326" lon="-0.6099">
        <ele>55</ele>
        <time>2012-10-18T14:42:06Z</time>
      </trkpt>
      <trkpt lat="46.29319" lon="-0.60991">
        <ele>56</ele>
        <time>2012-10-18T14:42:11Z</time>
      </trkpt>
      <trkpt lat="46.29313" lon="-0.6099">
        <ele>57</ele>
        <time>2012-10-18T14:42:16Z</time>
      </trkpt>
      <trkpt lat="46.29309" lon="-0.60991">
        <ele>59</ele>
        <time>2012-10-18T14:42:21Z</time>
      </trkpt>
      <trkpt lat="46.29301" lon="-0.60989">
        <ele>69</ele>
        <time>2012-10-18T14:42:26Z</time>
      </trkpt>
      <trkpt lat="46.29296" lon="-0.6099">
        <ele>68</ele>
        <time>2012-10-18T14:42:31Z</time>
      </trkpt>
      <trkpt lat="46.29291" lon="-0.60992">
        <ele>70</ele>
        <time>2012-10-18T14:42:36Z</time>
      </trkpt>
      <trkpt lat="46.29286" lon="-0.60994">
        <ele>70</ele>
        <time>2012-10-18T14:42:41Z</time>
      </trkpt>
      <trkpt lat="46.29281" lon="-0.60996">
        <ele>68</ele>
        <time>2012-10-18T14:42:46Z</time>
      </trkpt>
      <trkpt lat="46.29276" lon="-0.60998">
        <ele>68</ele>
        <time>2012-10-18T14:42:51Z</time>
      </trkpt>
      <trkpt lat="46.29271" lon="-0.61001">
        <ele>67</ele>
        <time>2012-10-18T14:42:56Z</time>
      </trkpt>
      <trkpt lat="46.29265" lon="-0.61003">
        <ele>63</ele>
        <time>2012-10-18T14:43:01Z</time>
      </trkpt>
      <trkpt lat="46.29259" lon="-0.61006">
        <ele>59</ele>
        <time>2012-10-18T14:43:06Z</time>
      </trkpt>
      <trkpt lat="46.29254" lon="-0.61011">
        <ele>56</ele>
        <time>2012-10-18T14:43:11Z</time>
      </trkpt>
      <trkpt lat="46.29248" lon="-0.61013">
        <ele>54</ele>
        <time>2012-10-18T14:43:16Z</time>
      </trkpt>
      <trkpt lat="46.29244" lon="-0.61018">
        <ele>54</ele>
        <time>2012-10-18T14:43:21Z</time>
      </trkpt>
      <trkpt lat="46.29236" lon="-0.61018">
        <ele>56</ele>
        <time>2012-10-18T14:43:26Z</time>
      </trkpt>
      <trkpt lat="46.29229" lon="-0.61025">
        <ele>57</ele>
        <time>2012-10-18T14:43:31Z</time>
      </trkpt>
      <trkpt lat="46.29222" lon="-0.61022">
        <ele>57</ele>
        <time>2012-10-18T14:43:36Z</time>
      </trkpt>
      <trkpt lat="46.29218" lon="-0.61023">
        <ele>58</ele>
        <time>2012-10-18T14:43:41Z</time>
      </trkpt>
      <trkpt lat="46.29211" lon="-0.61021">
        <ele>60</ele>
        <time>2012-10-18T14:43:46Z</time>
      </trkpt>
      <trkpt lat="46.29206" lon="-0.61025">
        <ele>57</ele>
        <time>2012-10-18T14:43:51Z</time>
      </trkpt>
      <trkpt lat="46.29201" lon="-0.61028">
        <ele>58</ele>
        <time>2012-10-18T14:43:56Z</time>
      </trkpt>
      <trkpt lat="46.29196" lon="-0.61027">
        <ele>61</ele>
        <time>2012-10-18T14:44:01Z</time>
      </trkpt>
      <trkpt lat="46.29192" lon="-0.61028">
        <ele>60</ele>
        <time>2012-10-18T14:44:06Z</time>
      </trkpt>
      <trkpt lat="46.29185" lon="-0.6103">
        <ele>60</ele>
        <time>2012-10-18T14:44:11Z</time>
      </trkpt>
      <trkpt lat="46.29177" lon="-0.6103">
        <ele>59</ele>
        <time>2012-10-18T14:44:16Z</time>
      </trkpt>
      <trkpt lat="46.29173" lon="-0.61032">
        <ele>61</ele>
        <time>2012-10-18T14:44:21Z</time>
      </trkpt>
      <trkpt lat="46.29169" lon="-0.61035">
        <ele>61</ele>
        <time>2012-10-18T14:44:26Z</time>
      </trkpt>
      <trkpt lat="46.29161" lon="-0.6104">
        <ele>62</ele>
        <time>2012-10-18T14:44:31Z</time>
      </trkpt>
      <trkpt lat="46.29156" lon="-0.61044">
        <ele>61</ele>
        <time>2012-10-18T14:44:36Z</time>
      </trkpt>
      <trkpt lat="46.29152" lon="-0.61049">
        <ele>62</ele>
        <time>2012-10-18T14:44:41Z</time>
      </trkpt>
      <trkpt lat="46.29146" lon="-0.61049">
        <ele>63</ele>
        <time>2012-10-18T14:44:46Z</time>
      </trkpt>
      <trkpt lat="46.2914" lon="-0.61049">
        <ele>62</ele>
        <time>2012-10-18T14:44:51Z</time>
      </trkpt>
      <trkpt lat="46.29134" lon="-0.61051">
        <ele>62</ele>
        <time>2012-10-18T14:44:56Z</time>
      </trkpt>
      <trkpt lat="46.29128" lon="-0.61052">
        <ele>63</ele>
        <time>2012-10-18T14:45:01Z</time>
      </trkpt>
      <trkpt lat="46.29122" lon="-0.61052">
        <ele>63</ele>
        <time>2012-10-18T14:45:06Z</time>
      </trkpt>
      <trkpt lat="46.29119" lon="-0.61053">
        <ele>60</ele>
        <time>2012-10-18T14:45:11Z</time>
      </trkpt>
      <trkpt lat="46.29112" lon="-0.61054">
        <ele>59</ele>
        <time>2012-10-18T14:45:16Z</time>
      </trkpt>
      <trkpt lat="46.29107" lon="-0.61059">
        <ele>57</ele>
        <time>2012-10-18T14:45:21Z</time>
      </trkpt>
      <trkpt lat="46.29101" lon="-0.61063">
        <ele>59</ele>
        <time>2012-10-18T14:45:26Z</time>
      </trkpt>
      <trkpt lat="46.29095" lon="-0.61069">
        <ele>58</ele>
        <time>2012-10-18T14:45:31Z</time>
      </trkpt>
      <trkpt lat="46.29089" lon="-0.61068">
        <ele>56</ele>
        <time>2012-10-18T14:45:36Z</time>
      </trkpt>
      <trkpt lat="46.29083" lon="-0.61066">
        <ele>57</ele>
        <time>2012-10-18T14:45:41Z</time>
      </trkpt>
      <trkpt lat="46.29082" lon="-0.61065">
        <ele>55</ele>
        <time>2012-10-18T14:45:46Z</time>
      </trkpt>
      <trkpt lat="46.29079" lon="-0.61063">
        <ele>54</ele>
        <time>2012-10-18T14:45:51Z</time>
      </trkpt>
      <trkpt lat="46.29079" lon="-0.61054">
        <ele>52</ele>
        <time>2012-10-18T14:45:56Z</time>
      </trkpt>
      <trkpt lat="46.29079" lon="-0.61045">
        <ele>51</ele>
        <time>2012-10-18T14:46:01Z</time>
      </trkpt>
      <trkpt lat="46.29079" lon="-0.61037">
        <ele>52</ele>
        <time>2012-10-18T14:46:06Z</time>
      </trkpt>
      <trkpt lat="46.29077" lon="-0.61027">
        <ele>53</ele>
        <time>2012-10-18T14:46:11Z</time>
      </trkpt>
      <trkpt lat="46.29074" lon="-0.61014">
        <ele>60</ele>
        <time>2012-10-18T14:46:16Z</time>
      </trkpt>
      <trkpt lat="46.29073" lon="-0.61007">
        <ele>58</ele>
        <time>2012-10-18T14:46:21Z</time>
      </trkpt>
      <trkpt lat="46.29073" lon="-0.60999">
        <ele>60</ele>
        <time>2012-10-18T14:46:26Z</time>
      </trkpt>
      <trkpt lat="46.29072" lon="-0.60991">
        <ele>63</ele>
        <time>2012-10-18T14:46:31Z</time>
      </trkpt>
      <trkpt lat="46.29072" lon="-0.60982">
        <ele>67</ele>
        <time>2012-10-18T14:46:36Z</time>
      </trkpt>
      <trkpt lat="46.29071" lon="-0.60976">
        <ele>65</ele>
        <time>2012-10-18T14:46:41Z</time>
      </trkpt>
      <trkpt lat="46.29068" lon="-0.6097">
        <ele>66</ele>
        <time>2012-10-18T14:46:46Z</time>
      </trkpt>
      <trkpt lat="46.29067" lon="-0.60963">
        <ele>66</ele>
        <time>2012-10-18T14:46:51Z</time>
      </trkpt>
      <trkpt lat="46.2907" lon="-0.60958">
        <ele>64</ele>
        <time>2012-10-18T14:46:56Z</time>
      </trkpt>
      <trkpt lat="46.2907" lon="-0.60951">
        <ele>65</ele>
        <time>2012-10-18T14:47:01Z</time>
      </trkpt>
      <trkpt lat="46.29067" lon="-0.6094">
        <ele>65</ele>
        <time>2012-10-18T14:47:06Z</time>
      </trkpt>
      <trkpt lat="46.29066" lon="-0.60932">
        <ele>63</ele>
        <time>2012-10-18T14:47:11Z</time>
      </trkpt>
      <trkpt lat="46.29065" lon="-0.60924">
        <ele>65</ele>
        <time>2012-10-18T14:47:16Z</time>
      </trkpt>
      <trkpt lat="46.29064" lon="-0.60915">
        <ele>66</ele>
        <time>2012-10-18T14:47:21Z</time>
      </trkpt>
      <trkpt lat="46.29064" lon="-0.60913">
        <ele>65</ele>
        <time>2012-10-18T14:47:26Z</time>
      </trkpt>
      <trkpt lat="46.29063" lon="-0.60901">
        <ele>66</ele>
        <time>2012-10-18T14:47:31Z</time>
      </trkpt>
      <trkpt lat="46.29061" lon="-0.60892">
        <ele>68</ele>
        <time>2012-10-18T14:47:36Z</time>
      </trkpt>
      <trkpt lat="46.2906" lon="-0.60885">
        <ele>67</ele>
        <time>2012-10-18T14:47:41Z</time>
      </trkpt>
      <trkpt lat="46.29058" lon="-0.60876">
        <ele>65</ele>
        <time>2012-10-18T14:47:46Z</time>
      </trkpt>
      <trkpt lat="46.29057" lon="-0.60867">
        <ele>63</ele>
        <time>2012-10-18T14:47:51Z</time>
      </trkpt>
      <trkpt lat="46.29056" lon="-0.60865">
        <ele>62</ele>
        <time>2012-10-18T14:47:56Z</time>
      </trkpt>
      <trkpt lat="46.29057" lon="-0.60853">
        <ele>62</ele>
        <time>2012-10-18T14:48:01Z</time>
      </trkpt>
      <trkpt lat="46.29054" lon="-0.60846">
        <ele>60</ele>
        <time>2012-10-18T14:48:06Z</time>
      </trkpt>
      <trkpt lat="46.29054" lon="-0.60845">
        <ele>61</ele>
        <time>2012-10-18T14:48:11Z</time>
      </trkpt>
      <trkpt lat="46.29053" lon="-0.60836">
        <ele>60</ele>
        <time>2012-10-18T14:48:16Z</time>
      </trkpt>
      <trkpt lat="46.29052" lon="-0.60828">
        <ele>59</ele>
        <time>2012-10-18T14:48:21Z</time>
      </trkpt>
      <trkpt lat="46.29052" lon="-0.60827">
        <ele>60</ele>
        <time>2012-10-18T14:48:26Z</time>
      </trkpt>
      <trkpt lat="46.29049" lon="-0.60815">
        <ele>61</ele>
        <time>2012-10-18T14:48:31Z</time>
      </trkpt>
      <trkpt lat="46.29049" lon="-0.60806">
        <ele>63</ele>
        <time>2012-10-18T14:48:36Z</time>
      </trkpt>
      <trkpt lat="46.29044" lon="-0.60799">
        <ele>64</ele>
        <time>2012-10-18T14:48:41Z</time>
      </trkpt>
      <trkpt lat="46.29042" lon="-0.6079">
        <ele>66</ele>
        <time>2012-10-18T14:48:46Z</time>
      </trkpt>
      <trkpt lat="46.29042" lon="-0.60785">
        <ele>64</ele>
        <time>2012-10-18T14:48:51Z</time>
      </trkpt>
      <trkpt lat="46.29042" lon="-0.60782">
        <ele>65</ele>
        <time>2012-10-18T14:48:56Z</time>
      </trkpt>
      <trkpt lat="46.29039" lon="-0.60772">
        <ele>65</ele>
        <time>2012-10-18T14:49:01Z</time>
      </trkpt>
      <trkpt lat="46.29039" lon="-0.60762">
        <ele>65</ele>
        <time>2012-10-18T14:49:06Z</time>
      </trkpt>
      <trkpt lat="46.29039" lon="-0.60757">
        <ele>64</ele>
        <time>2012-10-18T14:49:11Z</time>
      </trkpt>
      <trkpt lat="46.29039" lon="-0.60748">
        <ele>64</ele>
        <time>2012-10-18T14:49:16Z</time>
      </trkpt>
      <trkpt lat="46.29039" lon="-0.60744">
        <ele>63</ele>
        <time>2012-10-18T14:49:21Z</time>
      </trkpt>
      <trkpt lat="46.29039" lon="-0.60743">
        <ele>63</ele>
        <time>2012-10-18T14:49:26Z</time>
      </trkpt>
      <trkpt lat="46.29037" lon="-0.60731">
        <ele>62</ele>
        <time>2012-10-18T14:49:31Z</time>
      </trkpt>
      <trkpt lat="46.29032" lon="-0.60723">
        <ele>60</ele>
        <time>2012-10-18T14:49:36Z</time>
      </trkpt>
      <trkpt lat="46.29029" lon="-0.60715">
        <ele>58</ele>
        <time>2012-10-18T14:49:41Z</time>
      </trkpt>
      <trkpt lat="46.29024" lon="-0.60708">
        <ele>57</ele>
        <time>2012-10-18T14:49:46Z</time>
      </trkpt>
      <trkpt lat="46.29022" lon="-0.60703">
        <ele>56</ele>
        <time>2012-10-18T14:49:51Z</time>
      </trkpt>
      <trkpt lat="46.29019" lon="-0.60695">
        <ele>56</ele>
        <time>2012-10-18T14:49:56Z</time>
      </trkpt>
      <trkpt lat="46.29016" lon="-0.60688">
        <ele>55</ele>
        <time>2012-10-18T14:50:01Z</time>
      </trkpt>
      <trkpt lat="46.29015" lon="-0.60683">
        <ele>55</ele>
        <time>2012-10-18T14:50:06Z</time>
      </trkpt>
      <trkpt lat="46.2901" lon="-0.60674">
        <ele>55</ele>
        <time>2012-10-18T14:50:11Z</time>
      </trkpt>
      <trkpt lat="46.29008" lon="-0.60673">
        <ele>54</ele>
        <time>2012-10-18T14:50:16Z</time>
      </trkpt>
      <trkpt lat="46.29006" lon="-0.60671">
        <ele>54</ele>
        <time>2012-10-18T14:50:21Z</time>
      </trkpt>
      <trkpt lat="46.29003" lon="-0.60664">
        <ele>54</ele>
        <time>2012-10-18T14:50:26Z</time>
      </trkpt>
      <trkpt lat="46.28999" lon="-0.60659">
        <ele>53</ele>
        <time>2012-10-18T14:50:31Z</time>
      </trkpt>
      <trkpt lat="46.28994" lon="-0.60652">
        <ele>53</ele>
        <time>2012-10-18T14:50:36Z</time>
      </trkpt>
      <trkpt lat="46.28989" lon="-0.60652">
        <ele>52</ele>
        <time>2012-10-18T14:50:41Z</time>
      </trkpt>
      <trkpt lat="46.28985" lon="-0.6065">
        <ele>51</ele>
        <time>2012-10-18T14:50:46Z</time>
      </trkpt>
      <trkpt lat="46.28979" lon="-0.60646">
        <ele>51</ele>
        <time>2012-10-18T14:50:51Z</time>
      </trkpt>
      <trkpt lat="46.28973" lon="-0.60639">
        <ele>51</ele>
        <time>2012-10-18T14:50:56Z</time>
      </trkpt>
      <trkpt lat="46.28969" lon="-0.60634">
        <ele>51</ele>
        <time>2012-10-18T14:51:01Z</time>
      </trkpt>
      <trkpt lat="46.28966" lon="-0.60633">
        <ele>53</ele>
        <time>2012-10-18T14:51:06Z</time>
      </trkpt>
      <trkpt lat="46.28965" lon="-0.60632">
        <ele>53</ele>
        <time>2012-10-18T14:51:11Z</time>
      </trkpt>
      <trkpt lat="46.28965" lon="-0.60633">
        <ele>53</ele>
        <time>2012-10-18T14:51:16Z</time>
      </trkpt>
      <trkpt lat="46.28965" lon="-0.60633">
        <ele>53</ele>
        <time>2012-10-18T14:51:21Z</time>
      </trkpt>
      <trkpt lat="46.28963" lon="-0.60632">
        <ele>52</ele>
        <time>2012-10-18T14:51:46Z</time>
      </trkpt>
      <trkpt lat="46.28958" lon="-0.60627">
        <ele>54</ele>
        <time>2012-10-18T14:51:51Z</time>
      </trkpt>
      <trkpt lat="46.28954" lon="-0.60624">
        <ele>53</ele>
        <time>2012-10-18T14:51:56Z</time>
      </trkpt>
      <trkpt lat="46.28949" lon="-0.60622">
        <ele>53</ele>
        <time>2012-10-18T14:52:01Z</time>
      </trkpt>
      <trkpt lat="46.28944" lon="-0.60619">
        <ele>53</ele>
        <time>2012-10-18T14:52:06Z</time>
      </trkpt>
      <trkpt lat="46.28939" lon="-0.60616">
        <ele>54</ele>
        <time>2012-10-18T14:52:11Z</time>
      </trkpt>
      <trkpt lat="46.28935" lon="-0.60615">
        <ele>53</ele>
        <time>2012-10-18T14:52:16Z</time>
      </trkpt>
      <trkpt lat="46.28931" lon="-0.60613">
        <ele>53</ele>
        <time>2012-10-18T14:52:21Z</time>
      </trkpt>
      <trkpt lat="46.28926" lon="-0.60611">
        <ele>54</ele>
        <time>2012-10-18T14:52:26Z</time>
      </trkpt>
      <trkpt lat="46.28921" lon="-0.6061">
        <ele>54</ele>
        <time>2012-10-18T14:52:31Z</time>
      </trkpt>
      <trkpt lat="46.28917" lon="-0.60608">
        <ele>54</ele>
        <time>2012-10-18T14:52:36Z</time>
      </trkpt>
      <trkpt lat="46.28913" lon="-0.60607">
        <ele>54</ele>
        <time>2012-10-18T14:52:41Z</time>
      </trkpt>
      <trkpt lat="46.28908" lon="-0.606">
        <ele>54</ele>
        <time>2012-10-18T14:52:46Z</time>
      </trkpt>
      <trkpt lat="46.28904" lon="-0.60599">
        <ele>54</ele>
        <time>2012-10-18T14:52:51Z</time>
      </trkpt>
      <trkpt lat="46.28901" lon="-0.60595">
        <ele>53</ele>
        <time>2012-10-18T14:52:56Z</time>
      </trkpt>
      <trkpt lat="46.28897" lon="-0.60593">
        <ele>55</ele>
        <time>2012-10-18T14:53:01Z</time>
      </trkpt>
      <trkpt lat="46.28891" lon="-0.60588">
        <ele>56</ele>
        <time>2012-10-18T14:53:06Z</time>
      </trkpt>
      <trkpt lat="46.28887" lon="-0.60582">
        <ele>57</ele>
        <time>2012-10-18T14:53:11Z</time>
      </trkpt>
      <trkpt lat="46.28884" lon="-0.60582">
        <ele>57</ele>
        <time>2012-10-18T14:53:16Z</time>
      </trkpt>
      <trkpt lat="46.2888" lon="-0.60576">
        <ele>56</ele>
        <time>2012-10-18T14:53:21Z</time>
      </trkpt>
      <trkpt lat="46.28877" lon="-0.60571">
        <ele>56</ele>
        <time>2012-10-18T14:53:26Z</time>
      </trkpt>
      <trkpt lat="46.28873" lon="-0.60566">
        <ele>57</ele>
        <time>2012-10-18T14:53:31Z</time>
      </trkpt>
      <trkpt lat="46.28869" lon="-0.60561">
        <ele>57</ele>
        <time>2012-10-18T14:53:36Z</time>
      </trkpt>
      <trkpt lat="46.28866" lon="-0.60555">
        <ele>57</ele>
        <time>2012-10-18T14:53:41Z</time>
      </trkpt>
      <trkpt lat="46.28864" lon="-0.60549">
        <ele>57</ele>
        <time>2012-10-18T14:53:46Z</time>
      </trkpt>
      <trkpt lat="46.28859" lon="-0.6054">
        <ele>56</ele>
        <time>2012-10-18T14:53:51Z</time>
      </trkpt>
      <trkpt lat="46.28855" lon="-0.60536">
        <ele>56</ele>
        <time>2012-10-18T14:53:56Z</time>
      </trkpt>
      <trkpt lat="46.28853" lon="-0.6053">
        <ele>56</ele>
        <time>2012-10-18T14:54:01Z</time>
      </trkpt>
      <trkpt lat="46.2885" lon="-0.60526">
        <ele>56</ele>
        <time>2012-10-18T14:54:06Z</time>
      </trkpt>
      <trkpt lat="46.28847" lon="-0.60517">
        <ele>58</ele>
        <time>2012-10-18T14:54:11Z</time>
      </trkpt>
      <trkpt lat="46.28845" lon="-0.6051">
        <ele>59</ele>
        <time>2012-10-18T14:54:16Z</time>
      </trkpt>
      <trkpt lat="46.28842" lon="-0.605">
        <ele>59</ele>
        <time>2012-10-18T14:54:21Z</time>
      </trkpt>
      <trkpt lat="46.28839" lon="-0.60491">
        <ele>59</ele>
        <time>2012-10-18T14:54:26Z</time>
      </trkpt>
      <trkpt lat="46.28837" lon="-0.60485">
        <ele>60</ele>
        <time>2012-10-18T14:54:31Z</time>
      </trkpt>
      <trkpt lat="46.28835" lon="-0.60478">
        <ele>60</ele>
        <time>2012-10-18T14:54:36Z</time>
      </trkpt>
      <trkpt lat="46.28833" lon="-0.6047">
        <ele>59</ele>
        <time>2012-10-18T14:54:41Z</time>
      </trkpt>
      <trkpt lat="46.28832" lon="-0.60464">
        <ele>59</ele>
        <time>2012-10-18T14:54:46Z</time>
      </trkpt>
      <trkpt lat="46.28831" lon="-0.60456">
        <ele>60</ele>
        <time>2012-10-18T14:54:51Z</time>
      </trkpt>
      <trkpt lat="46.28831" lon="-0.60448">
        <ele>60</ele>
        <time>2012-10-18T14:54:56Z</time>
      </trkpt>
      <trkpt lat="46.2883" lon="-0.60438">
        <ele>61</ele>
        <time>2012-10-18T14:55:01Z</time>
      </trkpt>
      <trkpt lat="46.28828" lon="-0.60431">
        <ele>61</ele>
        <time>2012-10-18T14:55:06Z</time>
      </trkpt>
      <trkpt lat="46.28828" lon="-0.60423">
        <ele>62</ele>
        <time>2012-10-18T14:55:11Z</time>
      </trkpt>
      <trkpt lat="46.28826" lon="-0.60416">
        <ele>62</ele>
        <time>2012-10-18T14:55:16Z</time>
      </trkpt>
      <trkpt lat="46.28826" lon="-0.60409">
        <ele>61</ele>
        <time>2012-10-18T14:55:21Z</time>
      </trkpt>
      <trkpt lat="46.28828" lon="-0.60401">
        <ele>61</ele>
        <time>2012-10-18T14:55:26Z</time>
      </trkpt>
      <trkpt lat="46.28829" lon="-0.60394">
        <ele>60</ele>
        <time>2012-10-18T14:55:31Z</time>
      </trkpt>
      <trkpt lat="46.28828" lon="-0.60387">
        <ele>61</ele>
        <time>2012-10-18T14:55:36Z</time>
      </trkpt>
      <trkpt lat="46.28826" lon="-0.60379">
        <ele>61</ele>
        <time>2012-10-18T14:55:41Z</time>
      </trkpt>
      <trkpt lat="46.28827" lon="-0.60371">
        <ele>61</ele>
        <time>2012-10-18T14:55:46Z</time>
      </trkpt>
      <trkpt lat="46.28826" lon="-0.60364">
        <ele>60</ele>
        <time>2012-10-18T14:55:51Z</time>
      </trkpt>
      <trkpt lat="46.28827" lon="-0.60356">
        <ele>59</ele>
        <time>2012-10-18T14:55:56Z</time>
      </trkpt>
      <trkpt lat="46.28826" lon="-0.60348">
        <ele>60</ele>
        <time>2012-10-18T14:56:01Z</time>
      </trkpt>
      <trkpt lat="46.28827" lon="-0.60341">
        <ele>61</ele>
        <time>2012-10-18T14:56:06Z</time>
      </trkpt>
      <trkpt lat="46.28826" lon="-0.60331">
        <ele>60</ele>
        <time>2012-10-18T14:56:11Z</time>
      </trkpt>
      <trkpt lat="46.28826" lon="-0.60325">
        <ele>62</ele>
        <time>2012-10-18T14:56:16Z</time>
      </trkpt>
      <trkpt lat="46.28825" lon="-0.60318">
        <ele>62</ele>
        <time>2012-10-18T14:56:21Z</time>
      </trkpt>
      <trkpt lat="46.28826" lon="-0.6031">
        <ele>61</ele>
        <time>2012-10-18T14:56:26Z</time>
      </trkpt>
      <trkpt lat="46.28826" lon="-0.60302">
        <ele>61</ele>
        <time>2012-10-18T14:56:31Z</time>
      </trkpt>
      <trkpt lat="46.28826" lon="-0.60294">
        <ele>60</ele>
        <time>2012-10-18T14:56:36Z</time>
      </trkpt>
      <trkpt lat="46.28826" lon="-0.60287">
        <ele>60</ele>
        <time>2012-10-18T14:56:41Z</time>
      </trkpt>
      <trkpt lat="46.28825" lon="-0.60275">
        <ele>61</ele>
        <time>2012-10-18T14:56:46Z</time>
      </trkpt>
      <trkpt lat="46.28825" lon="-0.60268">
        <ele>61</ele>
        <time>2012-10-18T14:56:51Z</time>
      </trkpt>
      <trkpt lat="46.28824" lon="-0.60263">
        <ele>61</ele>
        <time>2012-10-18T14:56:56Z</time>
      </trkpt>
      <trkpt lat="46.28823" lon="-0.60254">
        <ele>61</ele>
        <time>2012-10-18T14:57:01Z</time>
      </trkpt>
      <trkpt lat="46.2882" lon="-0.60247">
        <ele>60</ele>
        <time>2012-10-18T14:57:06Z</time>
      </trkpt>
      <trkpt lat="46.28819" lon="-0.6024">
        <ele>60</ele>
        <time>2012-10-18T14:57:11Z</time>
      </trkpt>
      <trkpt lat="46.28817" lon="-0.60233">
        <ele>61</ele>
        <time>2012-10-18T14:57:16Z</time>
      </trkpt>
      <trkpt lat="46.28816" lon="-0.60227">
        <ele>61</ele>
        <time>2012-10-18T14:57:21Z</time>
      </trkpt>
      <trkpt lat="46.28816" lon="-0.6022">
        <ele>62</ele>
        <time>2012-10-18T14:57:26Z</time>
      </trkpt>
      <trkpt lat="46.28814" lon="-0.60212">
        <ele>62</ele>
        <time>2012-10-18T14:57:31Z</time>
      </trkpt>
      <trkpt lat="46.28814" lon="-0.60208">
        <ele>62</ele>
        <time>2012-10-18T14:57:36Z</time>
      </trkpt>
      <trkpt lat="46.28814" lon="-0.60199">
        <ele>61</ele>
        <time>2012-10-18T14:57:41Z</time>
      </trkpt>
      <trkpt lat="46.28813" lon="-0.60194">
        <ele>61</ele>
        <time>2012-10-18T14:57:46Z</time>
      </trkpt>
      <trkpt lat="46.28812" lon="-0.60188">
        <ele>61</ele>
        <time>2012-10-18T14:57:51Z</time>
      </trkpt>
      <trkpt lat="46.2881" lon="-0.60184">
        <ele>60</ele>
        <time>2012-10-18T14:57:56Z</time>
      </trkpt>
      <trkpt lat="46.28808" lon="-0.60176">
        <ele>61</ele>
        <time>2012-10-18T14:58:01Z</time>
      </trkpt>
      <trkpt lat="46.28804" lon="-0.60163">
        <ele>61</ele>
        <time>2012-10-18T14:58:06Z</time>
      </trkpt>
      <trkpt lat="46.28802" lon="-0.60156">
        <ele>59</ele>
        <time>2012-10-18T14:58:11Z</time>
      </trkpt>
      <trkpt lat="46.28802" lon="-0.6015">
        <ele>59</ele>
        <time>2012-10-18T14:58:16Z</time>
      </trkpt>
      <trkpt lat="46.28801" lon="-0.60143">
        <ele>60</ele>
        <time>2012-10-18T14:58:21Z</time>
      </trkpt>
      <trkpt lat="46.288" lon="-0.60133">
        <ele>64</ele>
        <time>2012-10-18T14:58:26Z</time>
      </trkpt>
      <trkpt lat="46.28799" lon="-0.60125">
        <ele>63</ele>
        <time>2012-10-18T14:58:31Z</time>
      </trkpt>
      <trkpt lat="46.28798" lon="-0.60118">
        <ele>64</ele>
        <time>2012-10-18T14:58:36Z</time>
      </trkpt>
      <trkpt lat="46.28797" lon="-0.60111">
        <ele>64</ele>
        <time>2012-10-18T14:58:41Z</time>
      </trkpt>
      <trkpt lat="46.28795" lon="-0.60104">
        <ele>63</ele>
        <time>2012-10-18T14:58:46Z</time>
      </trkpt>
      <trkpt lat="46.28794" lon="-0.60099">
        <ele>62</ele>
        <time>2012-10-18T14:58:51Z</time>
      </trkpt>
      <trkpt lat="46.28791" lon="-0.6009">
        <ele>62</ele>
        <time>2012-10-18T14:58:56Z</time>
      </trkpt>
      <trkpt lat="46.28789" lon="-0.6008">
        <ele>62</ele>
        <time>2012-10-18T14:59:01Z</time>
      </trkpt>
      <trkpt lat="46.28788" lon="-0.60073">
        <ele>62</ele>
        <time>2012-10-18T14:59:06Z</time>
      </trkpt>
      <trkpt lat="46.28786" lon="-0.60065">
        <ele>62</ele>
        <time>2012-10-18T14:59:11Z</time>
      </trkpt>
      <trkpt lat="46.28785" lon="-0.60058">
        <ele>62</ele>
        <time>2012-10-18T14:59:16Z</time>
      </trkpt>
      <trkpt lat="46.28783" lon="-0.60048">
        <ele>63</ele>
        <time>2012-10-18T14:59:21Z</time>
      </trkpt>
      <trkpt lat="46.28781" lon="-0.6004">
        <ele>64</ele>
        <time>2012-10-18T14:59:26Z</time>
      </trkpt>
      <trkpt lat="46.28781" lon="-0.60034">
        <ele>65</ele>
        <time>2012-10-18T14:59:31Z</time>
      </trkpt>
      <trkpt lat="46.28782" lon="-0.60025">
        <ele>66</ele>
        <time>2012-10-18T14:59:36Z</time>
      </trkpt>
      <trkpt lat="46.2878" lon="-0.60015">
        <ele>65</ele>
        <time>2012-10-18T14:59:41Z</time>
      </trkpt>
      <trkpt lat="46.2878" lon="-0.6001">
        <ele>65</ele>
        <time>2012-10-18T14:59:46Z</time>
      </trkpt>
      <trkpt lat="46.28778" lon="-0.60002">
        <ele>66</ele>
        <time>2012-10-18T14:59:51Z</time>
      </trkpt>
      <trkpt lat="46.28776" lon="-0.59991">
        <ele>65</ele>
        <time>2012-10-18T14:59:56Z</time>
      </trkpt>
      <trkpt lat="46.28776" lon="-0.59983">
        <ele>66</ele>
        <time>2012-10-18T15:00:01Z</time>
      </trkpt>
      <trkpt lat="46.28778" lon="-0.59981">
        <ele>67</ele>
        <time>2012-10-18T15:00:06Z</time>
      </trkpt>
      <trkpt lat="46.28779" lon="-0.59974">
        <ele>68</ele>
        <time>2012-10-18T15:00:11Z</time>
      </trkpt>
      <trkpt lat="46.28777" lon="-0.59963">
        <ele>69</ele>
        <time>2012-10-18T15:00:16Z</time>
      </trkpt>
      <trkpt lat="46.28776" lon="-0.59954">
        <ele>67</ele>
        <time>2012-10-18T15:00:21Z</time>
      </trkpt>
      <trkpt lat="46.28778" lon="-0.59948">
        <ele>65</ele>
        <time>2012-10-18T15:00:26Z</time>
      </trkpt>
      <trkpt lat="46.28777" lon="-0.59941">
        <ele>66</ele>
        <time>2012-10-18T15:00:31Z</time>
      </trkpt>
      <trkpt lat="46.28776" lon="-0.59935">
        <ele>67</ele>
        <time>2012-10-18T15:00:36Z</time>
      </trkpt>
      <trkpt lat="46.28774" lon="-0.5992">
        <ele>69</ele>
        <time>2012-10-18T15:00:41Z</time>
      </trkpt>
      <trkpt lat="46.28776" lon="-0.59916">
        <ele>69</ele>
        <time>2012-10-18T15:00:46Z</time>
      </trkpt>
      <trkpt lat="46.28776" lon="-0.5991">
        <ele>68</ele>
        <time>2012-10-18T15:00:51Z</time>
      </trkpt>
      <trkpt lat="46.28776" lon="-0.59903">
        <ele>68</ele>
        <time>2012-10-18T15:00:56Z</time>
      </trkpt>
      <trkpt lat="46.28774" lon="-0.59896">
        <ele>67</ele>
        <time>2012-10-18T15:01:01Z</time>
      </trkpt>
      <trkpt lat="46.28773" lon="-0.59888">
        <ele>66</ele>
        <time>2012-10-18T15:01:06Z</time>
      </trkpt>
      <trkpt lat="46.28772" lon="-0.59879">
        <ele>67</ele>
        <time>2012-10-18T15:01:11Z</time>
      </trkpt>
      <trkpt lat="46.28771" lon="-0.5987">
        <ele>66</ele>
        <time>2012-10-18T15:01:16Z</time>
      </trkpt>
      <trkpt lat="46.2877" lon="-0.59862">
        <ele>65</ele>
        <time>2012-10-18T15:01:21Z</time>
      </trkpt>
      <trkpt lat="46.28771" lon="-0.59859">
        <ele>66</ele>
        <time>2012-10-18T15:01:26Z</time>
      </trkpt>
      <trkpt lat="46.28771" lon="-0.59848">
        <ele>68</ele>
        <time>2012-10-18T15:01:31Z</time>
      </trkpt>
      <trkpt lat="46.2877" lon="-0.59841">
        <ele>68</ele>
        <time>2012-10-18T15:01:36Z</time>
      </trkpt>
      <trkpt lat="46.28769" lon="-0.59835">
        <ele>66</ele>
        <time>2012-10-18T15:01:41Z</time>
      </trkpt>
      <trkpt lat="46.2877" lon="-0.59832">
        <ele>66</ele>
        <time>2012-10-18T15:01:46Z</time>
      </trkpt>
      <trkpt lat="46.28769" lon="-0.59823">
        <ele>67</ele>
        <time>2012-10-18T15:01:51Z</time>
      </trkpt>
      <trkpt lat="46.28769" lon="-0.59816">
        <ele>67</ele>
        <time>2012-10-18T15:01:56Z</time>
      </trkpt>
      <trkpt lat="46.2877" lon="-0.59808">
        <ele>67</ele>
        <time>2012-10-18T15:02:01Z</time>
      </trkpt>
      <trkpt lat="46.2877" lon="-0.59801">
        <ele>67</ele>
        <time>2012-10-18T15:02:06Z</time>
      </trkpt>
      <trkpt lat="46.28767" lon="-0.59792">
        <ele>68</ele>
        <time>2012-10-18T15:02:11Z</time>
      </trkpt>
      <trkpt lat="46.28767" lon="-0.59785">
        <ele>68</ele>
        <time>2012-10-18T15:02:16Z</time>
      </trkpt>
      <trkpt lat="46.28767" lon="-0.59778">
        <ele>66</ele>
        <time>2012-10-18T15:02:21Z</time>
      </trkpt>
      <trkpt lat="46.28765" lon="-0.59767">
        <ele>65</ele>
        <time>2012-10-18T15:02:26Z</time>
      </trkpt>
      <trkpt lat="46.28764" lon="-0.59757">
        <ele>67</ele>
        <time>2012-10-18T15:02:31Z</time>
      </trkpt>
      <trkpt lat="46.28762" lon="-0.59749">
        <ele>66</ele>
        <time>2012-10-18T15:02:36Z</time>
      </trkpt>
      <trkpt lat="46.28761" lon="-0.59742">
        <ele>67</ele>
        <time>2012-10-18T15:02:41Z</time>
      </trkpt>
      <trkpt lat="46.28761" lon="-0.59733">
        <ele>67</ele>
        <time>2012-10-18T15:02:46Z</time>
      </trkpt>
      <trkpt lat="46.28761" lon="-0.59729">
        <ele>67</ele>
        <time>2012-10-18T15:02:51Z</time>
      </trkpt>
      <trkpt lat="46.28759" lon="-0.59716">
        <ele>67</ele>
        <time>2012-10-18T15:02:56Z</time>
      </trkpt>
      <trkpt lat="46.28759" lon="-0.59709">
        <ele>68</ele>
        <time>2012-10-18T15:03:01Z</time>
      </trkpt>
      <trkpt lat="46.28758" lon="-0.59703">
        <ele>68</ele>
        <time>2012-10-18T15:03:06Z</time>
      </trkpt>
      <trkpt lat="46.28758" lon="-0.59695">
        <ele>67</ele>
        <time>2012-10-18T15:03:11Z</time>
      </trkpt>
      <trkpt lat="46.2876" lon="-0.5969">
        <ele>68</ele>
        <time>2012-10-18T15:03:16Z</time>
      </trkpt>
      <trkpt lat="46.28762" lon="-0.59686">
        <ele>68</ele>
        <time>2012-10-18T15:03:21Z</time>
      </trkpt>
      <trkpt lat="46.28766" lon="-0.59683">
        <ele>68</ele>
        <time>2012-10-18T15:03:26Z</time>
      </trkpt>
      <trkpt lat="46.28771" lon="-0.59681">
        <ele>69</ele>
        <time>2012-10-18T15:03:31Z</time>
      </trkpt>
      <trkpt lat="46.28776" lon="-0.59678">
        <ele>70</ele>
        <time>2012-10-18T15:03:36Z</time>
      </trkpt>
      <trkpt lat="46.2878" lon="-0.59675">
        <ele>72</ele>
        <time>2012-10-18T15:03:41Z</time>
      </trkpt>
      <trkpt lat="46.28784" lon="-0.59673">
        <ele>73</ele>
        <time>2012-10-18T15:03:46Z</time>
      </trkpt>
      <trkpt lat="46.28789" lon="-0.59669">
        <ele>74</ele>
        <time>2012-10-18T15:03:51Z</time>
      </trkpt>
      <trkpt lat="46.28795" lon="-0.59667">
        <ele>74</ele>
        <time>2012-10-18T15:03:56Z</time>
      </trkpt>
      <trkpt lat="46.288" lon="-0.59665">
        <ele>72</ele>
        <time>2012-10-18T15:04:01Z</time>
      </trkpt>
      <trkpt lat="46.28804" lon="-0.59663">
        <ele>70</ele>
        <time>2012-10-18T15:04:06Z</time>
      </trkpt>
      <trkpt lat="46.28809" lon="-0.5966">
        <ele>70</ele>
        <time>2012-10-18T15:04:11Z</time>
      </trkpt>
      <trkpt lat="46.28813" lon="-0.59658">
        <ele>70</ele>
        <time>2012-10-18T15:04:16Z</time>
      </trkpt>
      <trkpt lat="46.28817" lon="-0.59656">
        <ele>70</ele>
        <time>2012-10-18T15:04:21Z</time>
      </trkpt>
      <trkpt lat="46.28821" lon="-0.59653">
        <ele>69</ele>
        <time>2012-10-18T15:04:26Z</time>
      </trkpt>
      <trkpt lat="46.28825" lon="-0.5965">
        <ele>66</ele>
        <time>2012-10-18T15:04:31Z</time>
      </trkpt>
      <trkpt lat="46.28831" lon="-0.59647">
        <ele>66</ele>
        <time>2012-10-18T15:04:36Z</time>
      </trkpt>
      <trkpt lat="46.28834" lon="-0.59645">
        <ele>66</ele>
        <time>2012-10-18T15:04:41Z</time>
      </trkpt>
      <trkpt lat="46.28841" lon="-0.59642">
        <ele>68</ele>
        <time>2012-10-18T15:04:46Z</time>
      </trkpt>
      <trkpt lat="46.28846" lon="-0.59638">
        <ele>69</ele>
        <time>2012-10-18T15:04:51Z</time>
      </trkpt>
      <trkpt lat="46.28846" lon="-0.59639">
        <ele>69</ele>
        <time>2012-10-18T15:04:56Z</time>
      </trkpt>
      <trkpt lat="46.28846" lon="-0.59639">
        <ele>69</ele>
        <time>2012-10-18T15:05:01Z</time>
      </trkpt>
      <trkpt lat="46.28846" lon="-0.59639">
        <ele>69</ele>
        <time>2012-10-18T15:05:11Z</time>
      </trkpt>
      <trkpt lat="46.28846" lon="-0.5964">
        <ele>69</ele>
        <time>2012-10-18T15:05:26Z</time>
      </trkpt>
      <trkpt lat="46.28845" lon="-0.5964">
        <ele>69</ele>
        <time>2012-10-18T15:05:31Z</time>
      </trkpt>
      <trkpt lat="46.28846" lon="-0.59639">
        <ele>69</ele>
        <time>2012-10-18T15:05:46Z</time>
      </trkpt>
      <trkpt lat="46.28849" lon="-0.59641">
        <ele>70</ele>
        <time>2012-10-18T15:05:51Z</time>
      </trkpt>
      <trkpt lat="46.28852" lon="-0.59643">
        <ele>68</ele>
        <time>2012-10-18T15:05:56Z</time>
      </trkpt>
      <trkpt lat="46.28856" lon="-0.59644">
        <ele>69</ele>
        <time>2012-10-18T15:06:01Z</time>
      </trkpt>
      <trkpt lat="46.28861" lon="-0.59647">
        <ele>68</ele>
        <time>2012-10-18T15:06:06Z</time>
      </trkpt>
      <trkpt lat="46.28866" lon="-0.59649">
        <ele>69</ele>
        <time>2012-10-18T15:06:11Z</time>
      </trkpt>
      <trkpt lat="46.2887" lon="-0.59651">
        <ele>69</ele>
        <time>2012-10-18T15:06:16Z</time>
      </trkpt>
      <trkpt lat="46.28877" lon="-0.5965">
        <ele>66</ele>
        <time>2012-10-18T15:06:21Z</time>
      </trkpt>
      <trkpt lat="46.28882" lon="-0.59654">
        <ele>66</ele>
        <time>2012-10-18T15:06:26Z</time>
      </trkpt>
      <trkpt lat="46.28888" lon="-0.59657">
        <ele>67</ele>
        <time>2012-10-18T15:06:31Z</time>
      </trkpt>
      <trkpt lat="46.28893" lon="-0.59659">
        <ele>67</ele>
        <time>2012-10-18T15:06:36Z</time>
      </trkpt>
      <trkpt lat="46.28898" lon="-0.59664">
        <ele>67</ele>
        <time>2012-10-18T15:06:41Z</time>
      </trkpt>
      <trkpt lat="46.289" lon="-0.59668">
        <ele>67</ele>
        <time>2012-10-18T15:06:46Z</time>
      </trkpt>
      <trkpt lat="46.28905" lon="-0.59674">
        <ele>68</ele>
        <time>2012-10-18T15:06:51Z</time>
      </trkpt>
      <trkpt lat="46.28908" lon="-0.59675">
        <ele>68</ele>
        <time>2012-10-18T15:06:56Z</time>
      </trkpt>
      <trkpt lat="46.2891" lon="-0.59682">
        <ele>68</ele>
        <time>2012-10-18T15:07:01Z</time>
      </trkpt>
      <trkpt lat="46.28918" lon="-0.59678">
        <ele>66</ele>
        <time>2012-10-18T15:07:06Z</time>
      </trkpt>
      <trkpt lat="46.28924" lon="-0.59683">
        <ele>66</ele>
        <time>2012-10-18T15:07:11Z</time>
      </trkpt>
      <trkpt lat="46.28929" lon="-0.59683">
        <ele>66</ele>
        <time>2012-10-18T15:07:16Z</time>
      </trkpt>
      <trkpt lat="46.28933" lon="-0.5969">
        <ele>68</ele>
        <time>2012-10-18T15:07:21Z</time>
      </trkpt>
      <trkpt lat="46.28936" lon="-0.59694">
        <ele>68</ele>
        <time>2012-10-18T15:07:26Z</time>
      </trkpt>
      <trkpt lat="46.28942" lon="-0.59699">
        <ele>68</ele>
        <time>2012-10-18T15:07:31Z</time>
      </trkpt>
      <trkpt lat="46.28948" lon="-0.59703">
        <ele>68</ele>
        <time>2012-10-18T15:07:36Z</time>
      </trkpt>
      <trkpt lat="46.28953" lon="-0.59705">
        <ele>69</ele>
        <time>2012-10-18T15:07:41Z</time>
      </trkpt>
      <trkpt lat="46.28958" lon="-0.5971">
        <ele>69</ele>
        <time>2012-10-18T15:07:46Z</time>
      </trkpt>
      <trkpt lat="46.28963" lon="-0.59708">
        <ele>69</ele>
        <time>2012-10-18T15:07:51Z</time>
      </trkpt>
      <trkpt lat="46.28969" lon="-0.59709">
        <ele>70</ele>
        <time>2012-10-18T15:07:56Z</time>
      </trkpt>
      <trkpt lat="46.28974" lon="-0.59714">
        <ele>71</ele>
        <time>2012-10-18T15:08:01Z</time>
      </trkpt>
      <trkpt lat="46.28979" lon="-0.59717">
        <ele>70</ele>
        <time>2012-10-18T15:08:06Z</time>
      </trkpt>
      <trkpt lat="46.28983" lon="-0.59717">
        <ele>69</ele>
        <time>2012-10-18T15:08:11Z</time>
      </trkpt>
      <trkpt lat="46.28987" lon="-0.59722">
        <ele>69</ele>
        <time>2012-10-18T15:08:16Z</time>
      </trkpt>
      <trkpt lat="46.28992" lon="-0.59727">
        <ele>70</ele>
        <time>2012-10-18T15:08:21Z</time>
      </trkpt>
      <trkpt lat="46.28996" lon="-0.59727">
        <ele>70</ele>
        <time>2012-10-18T15:08:26Z</time>
      </trkpt>
      <trkpt lat="46.29" lon="-0.5973">
        <ele>71</ele>
        <time>2012-10-18T15:08:31Z</time>
      </trkpt>
      <trkpt lat="46.29005" lon="-0.59734">
        <ele>70</ele>
        <time>2012-10-18T15:08:36Z</time>
      </trkpt>
      <trkpt lat="46.29014" lon="-0.59733">
        <ele>69</ele>
        <time>2012-10-18T15:08:41Z</time>
      </trkpt>
      <trkpt lat="46.29019" lon="-0.59739">
        <ele>70</ele>
        <time>2012-10-18T15:08:46Z</time>
      </trkpt>
      <trkpt lat="46.29024" lon="-0.59742">
        <ele>69</ele>
        <time>2012-10-18T15:08:51Z</time>
      </trkpt>
      <trkpt lat="46.29029" lon="-0.59746">
        <ele>69</ele>
        <time>2012-10-18T15:08:56Z</time>
      </trkpt>
      <trkpt lat="46.29034" lon="-0.59745">
        <ele>66</ele>
        <time>2012-10-18T15:09:01Z</time>
      </trkpt>
      <trkpt lat="46.29038" lon="-0.59747">
        <ele>67</ele>
        <time>2012-10-18T15:09:06Z</time>
      </trkpt>
      <trkpt lat="46.29042" lon="-0.59754">
        <ele>68</ele>
        <time>2012-10-18T15:09:11Z</time>
      </trkpt>
      <trkpt lat="46.29048" lon="-0.59754">
        <ele>68</ele>
        <time>2012-10-18T15:09:16Z</time>
      </trkpt>
      <trkpt lat="46.29052" lon="-0.5976">
        <ele>66</ele>
        <time>2012-10-18T15:09:21Z</time>
      </trkpt>
      <trkpt lat="46.2906" lon="-0.59762">
        <ele>66</ele>
        <time>2012-10-18T15:09:26Z</time>
      </trkpt>
      <trkpt lat="46.29063" lon="-0.5977">
        <ele>66</ele>
        <time>2012-10-18T15:09:31Z</time>
      </trkpt>
      <trkpt lat="46.29069" lon="-0.59769">
        <ele>66</ele>
        <time>2012-10-18T15:09:36Z</time>
      </trkpt>
      <trkpt lat="46.29074" lon="-0.59769">
        <ele>66</ele>
        <time>2012-10-18T15:09:41Z</time>
      </trkpt>
      <trkpt lat="46.29077" lon="-0.59774">
        <ele>67</ele>
        <time>2012-10-18T15:09:46Z</time>
      </trkpt>
      <trkpt lat="46.29081" lon="-0.59779">
        <ele>67</ele>
        <time>2012-10-18T15:09:51Z</time>
      </trkpt>
      <trkpt lat="46.29086" lon="-0.59782">
        <ele>68</ele>
        <time>2012-10-18T15:09:56Z</time>
      </trkpt>
      <trkpt lat="46.29092" lon="-0.59788">
        <ele>68</ele>
        <time>2012-10-18T15:10:01Z</time>
      </trkpt>
      <trkpt lat="46.29095" lon="-0.59798">
        <ele>70</ele>
        <time>2012-10-18T15:10:06Z</time>
      </trkpt>
      <trkpt lat="46.29099" lon="-0.59799">
        <ele>68</ele>
        <time>2012-10-18T15:10:11Z</time>
      </trkpt>
      <trkpt lat="46.29102" lon="-0.59804">
        <ele>69</ele>
        <time>2012-10-18T15:10:16Z</time>
      </trkpt>
      <trkpt lat="46.2911" lon="-0.59806">
        <ele>71</ele>
        <time>2012-10-18T15:10:21Z</time>
      </trkpt>
      <trkpt lat="46.29112" lon="-0.5981">
        <ele>71</ele>
        <time>2012-10-18T15:10:26Z</time>
      </trkpt>
      <trkpt lat="46.29116" lon="-0.59814">
        <ele>69</ele>
        <time>2012-10-18T15:10:31Z</time>
      </trkpt>
      <trkpt lat="46.29123" lon="-0.59817">
        <ele>69</ele>
        <time>2012-10-18T15:10:36Z</time>
      </trkpt>
      <trkpt lat="46.29129" lon="-0.59821">
        <ele>69</ele>
        <time>2012-10-18T15:10:41Z</time>
      </trkpt>
      <trkpt lat="46.29131" lon="-0.59824">
        <ele>70</ele>
        <time>2012-10-18T15:10:46Z</time>
      </trkpt>
      <trkpt lat="46.29141" lon="-0.59825">
        <ele>68</ele>
        <time>2012-10-18T15:10:51Z</time>
      </trkpt>
      <trkpt lat="46.29147" lon="-0.59825">
        <ele>68</ele>
        <time>2012-10-18T15:10:56Z</time>
      </trkpt>
      <trkpt lat="46.29151" lon="-0.59828">
        <ele>68</ele>
        <time>2012-10-18T15:11:01Z</time>
      </trkpt>
      <trkpt lat="46.29153" lon="-0.59827">
        <ele>67</ele>
        <time>2012-10-18T15:11:06Z</time>
      </trkpt>
      <trkpt lat="46.29157" lon="-0.59828">
        <ele>66</ele>
        <time>2012-10-18T15:11:11Z</time>
      </trkpt>
      <trkpt lat="46.29162" lon="-0.59827">
        <ele>66</ele>
        <time>2012-10-18T15:11:16Z</time>
      </trkpt>
      <trkpt lat="46.29168" lon="-0.59828">
        <ele>66</ele>
        <time>2012-10-18T15:11:21Z</time>
      </trkpt>
      <trkpt lat="46.29175" lon="-0.59827">
        <ele>66</ele>
        <time>2012-10-18T15:11:26Z</time>
      </trkpt>
      <trkpt lat="46.29183" lon="-0.59827">
        <ele>66</ele>
        <time>2012-10-18T15:11:31Z</time>
      </trkpt>
      <trkpt lat="46.29188" lon="-0.59826">
        <ele>67</ele>
        <time>2012-10-18T15:11:36Z</time>
      </trkpt>
      <trkpt lat="46.29193" lon="-0.59825">
        <ele>68</ele>
        <time>2012-10-18T15:11:41Z</time>
      </trkpt>
      <trkpt lat="46.29193" lon="-0.59823">
        <ele>68</ele>
        <time>2012-10-18T15:11:46Z</time>
      </trkpt>
      <trkpt lat="46.29202" lon="-0.59823">
        <ele>71</ele>
        <time>2012-10-18T15:11:51Z</time>
      </trkpt>
      <trkpt lat="46.29208" lon="-0.59822">
        <ele>70</ele>
        <time>2012-10-18T15:11:56Z</time>
      </trkpt>
      <trkpt lat="46.29212" lon="-0.59821">
        <ele>68</ele>
        <time>2012-10-18T15:12:01Z</time>
      </trkpt>
      <trkpt lat="46.29216" lon="-0.59818">
        <ele>66</ele>
        <time>2012-10-18T15:12:06Z</time>
      </trkpt>
      <trkpt lat="46.29221" lon="-0.59816">
        <ele>66</ele>
        <time>2012-10-18T15:12:11Z</time>
      </trkpt>
      <trkpt lat="46.29225" lon="-0.59815">
        <ele>65</ele>
        <time>2012-10-18T15:12:16Z</time>
      </trkpt>
      <trkpt lat="46.2923" lon="-0.59815">
        <ele>65</ele>
        <time>2012-10-18T15:12:21Z</time>
      </trkpt>
      <trkpt lat="46.29235" lon="-0.59813">
        <ele>65</ele>
        <time>2012-10-18T15:12:26Z</time>
      </trkpt>
      <trkpt lat="46.29239" lon="-0.59812">
        <ele>64</ele>
        <time>2012-10-18T15:12:31Z</time>
      </trkpt>
      <trkpt lat="46.29244" lon="-0.5981">
        <ele>64</ele>
        <time>2012-10-18T15:12:36Z</time>
      </trkpt>
      <trkpt lat="46.29248" lon="-0.5981">
        <ele>62</ele>
        <time>2012-10-18T15:12:41Z</time>
      </trkpt>
      <trkpt lat="46.29254" lon="-0.59806">
        <ele>62</ele>
        <time>2012-10-18T15:12:46Z</time>
      </trkpt>
      <trkpt lat="46.29254" lon="-0.59807">
        <ele>62</ele>
        <time>2012-10-18T15:12:51Z</time>
      </trkpt>
      <trkpt lat="46.29258" lon="-0.59806">
        <ele>63</ele>
        <time>2012-10-18T15:12:56Z</time>
      </trkpt>
      <trkpt lat="46.2927" lon="-0.59802">
        <ele>62</ele>
        <time>2012-10-18T15:13:01Z</time>
      </trkpt>
      <trkpt lat="46.29277" lon="-0.59798">
        <ele>61</ele>
        <time>2012-10-18T15:13:06Z</time>
      </trkpt>
      <trkpt lat="46.29282" lon="-0.59794">
        <ele>61</ele>
        <time>2012-10-18T15:13:11Z</time>
      </trkpt>
      <trkpt lat="46.29287" lon="-0.59793">
        <ele>60</ele>
        <time>2012-10-18T15:13:16Z</time>
      </trkpt>
      <trkpt lat="46.29292" lon="-0.59792">
        <ele>60</ele>
        <time>2012-10-18T15:13:21Z</time>
      </trkpt>
      <trkpt lat="46.29297" lon="-0.59791">
        <ele>61</ele>
        <time>2012-10-18T15:13:26Z</time>
      </trkpt>
      <trkpt lat="46.29303" lon="-0.5979">
        <ele>60</ele>
        <time>2012-10-18T15:13:31Z</time>
      </trkpt>
      <trkpt lat="46.29308" lon="-0.59788">
        <ele>61</ele>
        <time>2012-10-18T15:13:36Z</time>
      </trkpt>
      <trkpt lat="46.29313" lon="-0.59786">
        <ele>61</ele>
        <time>2012-10-18T15:13:41Z</time>
      </trkpt>
      <trkpt lat="46.29319" lon="-0.59788">
        <ele>61</ele>
        <time>2012-10-18T15:13:46Z</time>
      </trkpt>
      <trkpt lat="46.29325" lon="-0.59786">
        <ele>58</ele>
        <time>2012-10-18T15:13:51Z</time>
      </trkpt>
      <trkpt lat="46.29331" lon="-0.59786">
        <ele>59</ele>
        <time>2012-10-18T15:13:56Z</time>
      </trkpt>
      <trkpt lat="46.29336" lon="-0.59786">
        <ele>59</ele>
        <time>2012-10-18T15:14:01Z</time>
      </trkpt>
      <trkpt lat="46.2934" lon="-0.59786">
        <ele>59</ele>
        <time>2012-10-18T15:14:06Z</time>
      </trkpt>
      <trkpt lat="46.29347" lon="-0.59785">
        <ele>59</ele>
        <time>2012-10-18T15:14:11Z</time>
      </trkpt>
      <trkpt lat="46.29352" lon="-0.59787">
        <ele>58</ele>
        <time>2012-10-18T15:14:16Z</time>
      </trkpt>
      <trkpt lat="46.29358" lon="-0.59787">
        <ele>56</ele>
        <time>2012-10-18T15:14:21Z</time>
      </trkpt>
      <trkpt lat="46.29362" lon="-0.59786">
        <ele>56</ele>
        <time>2012-10-18T15:14:26Z</time>
      </trkpt>
      <trkpt lat="46.29367" lon="-0.59786">
        <ele>56</ele>
        <time>2012-10-18T15:14:31Z</time>
      </trkpt>
      <trkpt lat="46.29372" lon="-0.59791">
        <ele>57</ele>
        <time>2012-10-18T15:14:36Z</time>
      </trkpt>
      <trkpt lat="46.29376" lon="-0.59792">
        <ele>57</ele>
        <time>2012-10-18T15:14:41Z</time>
      </trkpt>
      <trkpt lat="46.29382" lon="-0.59792">
        <ele>57</ele>
        <time>2012-10-18T15:14:46Z</time>
      </trkpt>
      <trkpt lat="46.29389" lon="-0.59793">
        <ele>56</ele>
        <time>2012-10-18T15:14:51Z</time>
      </trkpt>
      <trkpt lat="46.29393" lon="-0.59794">
        <ele>56</ele>
        <time>2012-10-18T15:14:56Z</time>
      </trkpt>
      <trkpt lat="46.29398" lon="-0.59793">
        <ele>56</ele>
        <time>2012-10-18T15:15:01Z</time>
      </trkpt>
      <trkpt lat="46.29403" lon="-0.59795">
        <ele>56</ele>
        <time>2012-10-18T15:15:06Z</time>
      </trkpt>
      <trkpt lat="46.29408" lon="-0.598">
        <ele>56</ele>
        <time>2012-10-18T15:15:11Z</time>
      </trkpt>
      <trkpt lat="46.29413" lon="-0.59803">
        <ele>57</ele>
        <time>2012-10-18T15:15:16Z</time>
      </trkpt>
      <trkpt lat="46.29417" lon="-0.59802">
        <ele>57</ele>
        <time>2012-10-18T15:15:21Z</time>
      </trkpt>
      <trkpt lat="46.29419" lon="-0.59801">
        <ele>57</ele>
        <time>2012-10-18T15:15:26Z</time>
      </trkpt>
      <trkpt lat="46.29429" lon="-0.59801">
        <ele>56</ele>
        <time>2012-10-18T15:15:31Z</time>
      </trkpt>
      <trkpt lat="46.29431" lon="-0.59801">
        <ele>56</ele>
        <time>2012-10-18T15:15:36Z</time>
      </trkpt>
      <trkpt lat="46.29435" lon="-0.59803">
        <ele>55</ele>
        <time>2012-10-18T15:15:41Z</time>
      </trkpt>
      <trkpt lat="46.29446" lon="-0.59804">
        <ele>56</ele>
        <time>2012-10-18T15:15:46Z</time>
      </trkpt>
      <trkpt lat="46.29451" lon="-0.59803">
        <ele>55</ele>
        <time>2012-10-18T15:15:51Z</time>
      </trkpt>
      <trkpt lat="46.29458" lon="-0.59802">
        <ele>54</ele>
        <time>2012-10-18T15:15:56Z</time>
      </trkpt>
      <trkpt lat="46.29464" lon="-0.59799">
        <ele>55</ele>
        <time>2012-10-18T15:16:01Z</time>
      </trkpt>
      <trkpt lat="46.29471" lon="-0.59798">
        <ele>57</ele>
        <time>2012-10-18T15:16:06Z</time>
      </trkpt>
      <trkpt lat="46.29477" lon="-0.59795">
        <ele>57</ele>
        <time>2012-10-18T15:16:11Z</time>
      </trkpt>
      <trkpt lat="46.29481" lon="-0.59792">
        <ele>56</ele>
        <time>2012-10-18T15:16:16Z</time>
      </trkpt>
      <trkpt lat="46.29485" lon="-0.59789">
        <ele>56</ele>
        <time>2012-10-18T15:16:21Z</time>
      </trkpt>
      <trkpt lat="46.2949" lon="-0.59784">
        <ele>56</ele>
        <time>2012-10-18T15:16:26Z</time>
      </trkpt>
      <trkpt lat="46.29495" lon="-0.59779">
        <ele>56</ele>
        <time>2012-10-18T15:16:31Z</time>
      </trkpt>
      <trkpt lat="46.29499" lon="-0.59775">
        <ele>54</ele>
        <time>2012-10-18T15:16:36Z</time>
      </trkpt>
      <trkpt lat="46.29503" lon="-0.5977">
        <ele>53</ele>
        <time>2012-10-18T15:16:41Z</time>
      </trkpt>
      <trkpt lat="46.29507" lon="-0.59766">
        <ele>54</ele>
        <time>2012-10-18T15:16:46Z</time>
      </trkpt>
      <trkpt lat="46.2951" lon="-0.5976">
        <ele>52</ele>
        <time>2012-10-18T15:16:51Z</time>
      </trkpt>
      <trkpt lat="46.29513" lon="-0.59754">
        <ele>51</ele>
        <time>2012-10-18T15:16:56Z</time>
      </trkpt>
      <trkpt lat="46.29516" lon="-0.59746">
        <ele>53</ele>
        <time>2012-10-18T15:17:01Z</time>
      </trkpt>
      <trkpt lat="46.29521" lon="-0.59741">
        <ele>54</ele>
        <time>2012-10-18T15:17:06Z</time>
      </trkpt>
      <trkpt lat="46.29525" lon="-0.59737">
        <ele>55</ele>
        <time>2012-10-18T15:17:11Z</time>
      </trkpt>
      <trkpt lat="46.29529" lon="-0.5973">
        <ele>54</ele>
        <time>2012-10-18T15:17:16Z</time>
      </trkpt>
      <trkpt lat="46.29532" lon="-0.59725">
        <ele>53</ele>
        <time>2012-10-18T15:17:21Z</time>
      </trkpt>
      <trkpt lat="46.29536" lon="-0.59719">
        <ele>53</ele>
        <time>2012-10-18T15:17:26Z</time>
      </trkpt>
      <trkpt lat="46.29539" lon="-0.59714">
        <ele>54</ele>
        <time>2012-10-18T15:17:31Z</time>
      </trkpt>
      <trkpt lat="46.29543" lon="-0.59708">
        <ele>54</ele>
        <time>2012-10-18T15:17:36Z</time>
      </trkpt>
      <trkpt lat="46.29544" lon="-0.59701">
        <ele>54</ele>
        <time>2012-10-18T15:17:41Z</time>
      </trkpt>
      <trkpt lat="46.29547" lon="-0.59696">
        <ele>53</ele>
        <time>2012-10-18T15:17:46Z</time>
      </trkpt>
      <trkpt lat="46.29555" lon="-0.59689">
        <ele>53</ele>
        <time>2012-10-18T15:17:51Z</time>
      </trkpt>
      <trkpt lat="46.29556" lon="-0.59681">
        <ele>54</ele>
        <time>2012-10-18T15:17:56Z</time>
      </trkpt>
      <trkpt lat="46.29561" lon="-0.59675">
        <ele>55</ele>
        <time>2012-10-18T15:18:01Z</time>
      </trkpt>
      <trkpt lat="46.29564" lon="-0.59669">
        <ele>54</ele>
        <time>2012-10-18T15:18:06Z</time>
      </trkpt>
      <trkpt lat="46.29569" lon="-0.59665">
        <ele>54</ele>
        <time>2012-10-18T15:18:11Z</time>
      </trkpt>
      <trkpt lat="46.29571" lon="-0.5966">
        <ele>54</ele>
        <time>2012-10-18T15:18:16Z</time>
      </trkpt>
      <trkpt lat="46.29575" lon="-0.59654">
        <ele>56</ele>
        <time>2012-10-18T15:18:21Z</time>
      </trkpt>
      <trkpt lat="46.29582" lon="-0.59647">
        <ele>55</ele>
        <time>2012-10-18T15:18:26Z</time>
      </trkpt>
      <trkpt lat="46.29586" lon="-0.59643">
        <ele>56</ele>
        <time>2012-10-18T15:18:31Z</time>
      </trkpt>
      <trkpt lat="46.29588" lon="-0.59639">
        <ele>53</ele>
        <time>2012-10-18T15:18:36Z</time>
      </trkpt>
      <trkpt lat="46.2959" lon="-0.59633">
        <ele>52</ele>
        <time>2012-10-18T15:18:41Z</time>
      </trkpt>
      <trkpt lat="46.29593" lon="-0.59627">
        <ele>52</ele>
        <time>2012-10-18T15:18:46Z</time>
      </trkpt>
      <trkpt lat="46.29597" lon="-0.59621">
        <ele>51</ele>
        <time>2012-10-18T15:18:51Z</time>
      </trkpt>
      <trkpt lat="46.296" lon="-0.59615">
        <ele>51</ele>
        <time>2012-10-18T15:18:56Z</time>
      </trkpt>
      <trkpt lat="46.29601" lon="-0.59612">
        <ele>49</ele>
        <time>2012-10-18T15:19:01Z</time>
      </trkpt>
      <trkpt lat="46.29602" lon="-0.59613">
        <ele>49</ele>
        <time>2012-10-18T15:19:06Z</time>
      </trkpt>
      <trkpt lat="46.29605" lon="-0.59609">
        <ele>51</ele>
        <time>2012-10-18T15:19:11Z</time>
      </trkpt>
      <trkpt lat="46.29609" lon="-0.59605">
        <ele>52</ele>
        <time>2012-10-18T15:19:16Z</time>
      </trkpt>
      <trkpt lat="46.29613" lon="-0.59599">
        <ele>52</ele>
        <time>2012-10-18T15:19:21Z</time>
      </trkpt>
      <trkpt lat="46.29617" lon="-0.59593">
        <ele>51</ele>
        <time>2012-10-18T15:19:26Z</time>
      </trkpt>
      <trkpt lat="46.29621" lon="-0.59587">
        <ele>50</ele>
        <time>2012-10-18T15:19:31Z</time>
      </trkpt>
      <trkpt lat="46.29624" lon="-0.59582">
        <ele>49</ele>
        <time>2012-10-18T15:19:36Z</time>
      </trkpt>
      <trkpt lat="46.29628" lon="-0.59577">
        <ele>50</ele>
        <time>2012-10-18T15:19:41Z</time>
      </trkpt>
      <trkpt lat="46.29634" lon="-0.59571">
        <ele>51</ele>
        <time>2012-10-18T15:19:46Z</time>
      </trkpt>
      <trkpt lat="46.29638" lon="-0.59564">
        <ele>52</ele>
        <time>2012-10-18T15:19:51Z</time>
      </trkpt>
      <trkpt lat="46.29642" lon="-0.5956">
        <ele>52</ele>
        <time>2012-10-18T15:19:56Z</time>
      </trkpt>
      <trkpt lat="46.29647" lon="-0.59556">
        <ele>52</ele>
        <time>2012-10-18T15:20:01Z</time>
      </trkpt>
      <trkpt lat="46.2965" lon="-0.59553">
        <ele>51</ele>
        <time>2012-10-18T15:20:06Z</time>
      </trkpt>
      <trkpt lat="46.29654" lon="-0.5955">
        <ele>51</ele>
        <time>2012-10-18T15:20:11Z</time>
      </trkpt>
      <trkpt lat="46.29659" lon="-0.59549">
        <ele>51</ele>
        <time>2012-10-18T15:20:16Z</time>
      </trkpt>
      <trkpt lat="46.29663" lon="-0.59548">
        <ele>50</ele>
        <time>2012-10-18T15:20:21Z</time>
      </trkpt>
      <trkpt lat="46.29668" lon="-0.59544">
        <ele>50</ele>
        <time>2012-10-18T15:20:26Z</time>
      </trkpt>
      <trkpt lat="46.29672" lon="-0.59542">
        <ele>51</ele>
        <time>2012-10-18T15:20:31Z</time>
      </trkpt>
      <trkpt lat="46.29672" lon="-0.59542">
        <ele>51</ele>
        <time>2012-10-18T15:20:36Z</time>
      </trkpt>
      <trkpt lat="46.29678" lon="-0.59539">
        <ele>50</ele>
        <time>2012-10-18T15:20:41Z</time>
      </trkpt>
      <trkpt lat="46.29684" lon="-0.59535">
        <ele>49</ele>
        <time>2012-10-18T15:20:46Z</time>
      </trkpt>
      <trkpt lat="46.2969" lon="-0.59537">
        <ele>50</ele>
        <time>2012-10-18T15:20:51Z</time>
      </trkpt>
      <trkpt lat="46.29692" lon="-0.59537">
        <ele>52</ele>
        <time>2012-10-18T15:20:56Z</time>
      </trkpt>
      <trkpt lat="46.29697" lon="-0.59536">
        <ele>53</ele>
        <time>2012-10-18T15:21:01Z</time>
      </trkpt>
      <trkpt lat="46.29704" lon="-0.59532">
        <ele>54</ele>
        <time>2012-10-18T15:21:06Z</time>
      </trkpt>
      <trkpt lat="46.29709" lon="-0.59527">
        <ele>54</ele>
        <time>2012-10-18T15:21:11Z</time>
      </trkpt>
      <trkpt lat="46.29712" lon="-0.59525">
        <ele>55</ele>
        <time>2012-10-18T15:21:16Z</time>
      </trkpt>
      <trkpt lat="46.29718" lon="-0.5952">
        <ele>55</ele>
        <time>2012-10-18T15:21:21Z</time>
      </trkpt>
      <trkpt lat="46.29722" lon="-0.59518">
        <ele>55</ele>
        <time>2012-10-18T15:21:26Z</time>
      </trkpt>
      <trkpt lat="46.29727" lon="-0.59512">
        <ele>56</ele>
        <time>2012-10-18T15:21:31Z</time>
      </trkpt>
      <trkpt lat="46.29731" lon="-0.59508">
        <ele>54</ele>
        <time>2012-10-18T15:21:36Z</time>
      </trkpt>
      <trkpt lat="46.29736" lon="-0.59504">
        <ele>52</ele>
        <time>2012-10-18T15:21:41Z</time>
      </trkpt>
      <trkpt lat="46.29741" lon="-0.59498">
        <ele>51</ele>
        <time>2012-10-18T15:21:46Z</time>
      </trkpt>
      <trkpt lat="46.29745" lon="-0.59491">
        <ele>52</ele>
        <time>2012-10-18T15:21:51Z</time>
      </trkpt>
      <trkpt lat="46.29747" lon="-0.59484">
        <ele>53</ele>
        <time>2012-10-18T15:21:56Z</time>
      </trkpt>
      <trkpt lat="46.29753" lon="-0.59478">
        <ele>53</ele>
        <time>2012-10-18T15:22:01Z</time>
      </trkpt>
      <trkpt lat="46.29757" lon="-0.59473">
        <ele>53</ele>
        <time>2012-10-18T15:22:06Z</time>
      </trkpt>
      <trkpt lat="46.29759" lon="-0.59469">
        <ele>53</ele>
        <time>2012-10-18T15:22:11Z</time>
      </trkpt>
      <trkpt lat="46.29767" lon="-0.59466">
        <ele>53</ele>
        <time>2012-10-18T15:22:16Z</time>
      </trkpt>
      <trkpt lat="46.29771" lon="-0.59463">
        <ele>51</ele>
        <time>2012-10-18T15:22:21Z</time>
      </trkpt>
      <trkpt lat="46.29775" lon="-0.5946">
        <ele>52</ele>
        <time>2012-10-18T15:22:26Z</time>
      </trkpt>
      <trkpt lat="46.29781" lon="-0.59458">
        <ele>53</ele>
        <time>2012-10-18T15:22:31Z</time>
      </trkpt>
      <trkpt lat="46.29786" lon="-0.59457">
        <ele>52</ele>
        <time>2012-10-18T15:22:36Z</time>
      </trkpt>
      <trkpt lat="46.2979" lon="-0.59456">
        <ele>51</ele>
        <time>2012-10-18T15:22:41Z</time>
      </trkpt>
      <trkpt lat="46.29792" lon="-0.59455">
        <ele>50</ele>
        <time>2012-10-18T15:22:46Z</time>
      </trkpt>
      <trkpt lat="46.29795" lon="-0.59456">
        <ele>50</ele>
        <time>2012-10-18T15:22:51Z</time>
      </trkpt>
      <trkpt lat="46.29801" lon="-0.59457">
        <ele>50</ele>
        <time>2012-10-18T15:22:56Z</time>
      </trkpt>
      <trkpt lat="46.29806" lon="-0.59456">
        <ele>51</ele>
        <time>2012-10-18T15:23:01Z</time>
      </trkpt>
      <trkpt lat="46.29809" lon="-0.59456">
        <ele>53</ele>
        <time>2012-10-18T15:23:06Z</time>
      </trkpt>
      <trkpt lat="46.29815" lon="-0.59458">
        <ele>53</ele>
        <time>2012-10-18T15:23:11Z</time>
      </trkpt>
      <trkpt lat="46.29819" lon="-0.59457">
        <ele>53</ele>
        <time>2012-10-18T15:23:16Z</time>
      </trkpt>
      <trkpt lat="46.29826" lon="-0.59458">
        <ele>53</ele>
        <time>2012-10-18T15:23:21Z</time>
      </trkpt>
      <trkpt lat="46.2983" lon="-0.59456">
        <ele>53</ele>
        <time>2012-10-18T15:23:26Z</time>
      </trkpt>
      <trkpt lat="46.29838" lon="-0.59455">
        <ele>53</ele>
        <time>2012-10-18T15:23:31Z</time>
      </trkpt>
      <trkpt lat="46.29844" lon="-0.59454">
        <ele>53</ele>
        <time>2012-10-18T15:23:36Z</time>
      </trkpt>
      <trkpt lat="46.29849" lon="-0.59454">
        <ele>54</ele>
        <time>2012-10-18T15:23:41Z</time>
      </trkpt>
      <trkpt lat="46.29854" lon="-0.59454">
        <ele>56</ele>
        <time>2012-10-18T15:23:46Z</time>
      </trkpt>
      <trkpt lat="46.29861" lon="-0.59454">
        <ele>54</ele>
        <time>2012-10-18T15:23:51Z</time>
      </trkpt>
      <trkpt lat="46.29868" lon="-0.59454">
        <ele>53</ele>
        <time>2012-10-18T15:23:56Z</time>
      </trkpt>
      <trkpt lat="46.29873" lon="-0.59453">
        <ele>53</ele>
        <time>2012-10-18T15:24:01Z</time>
      </trkpt>
      <trkpt lat="46.29877" lon="-0.59455">
        <ele>49</ele>
        <time>2012-10-18T15:24:06Z</time>
      </trkpt>
      <trkpt lat="46.29883" lon="-0.59455">
        <ele>50</ele>
        <time>2012-10-18T15:24:11Z</time>
      </trkpt>
      <trkpt lat="46.2989" lon="-0.59455">
        <ele>47</ele>
        <time>2012-10-18T15:24:16Z</time>
      </trkpt>
      <trkpt lat="46.29895" lon="-0.59457">
        <ele>44</ele>
        <time>2012-10-18T15:24:21Z</time>
      </trkpt>
      <trkpt lat="46.29899" lon="-0.59457">
        <ele>43</ele>
        <time>2012-10-18T15:24:26Z</time>
      </trkpt>
      <trkpt lat="46.29905" lon="-0.59457">
        <ele>42</ele>
        <time>2012-10-18T15:24:31Z</time>
      </trkpt>
      <trkpt lat="46.29911" lon="-0.59457">
        <ele>44</ele>
        <time>2012-10-18T15:24:36Z</time>
      </trkpt>
      <trkpt lat="46.29916" lon="-0.59455">
        <ele>47</ele>
        <time>2012-10-18T15:24:41Z</time>
      </trkpt>
      <trkpt lat="46.29921" lon="-0.59455">
        <ele>48</ele>
        <time>2012-10-18T15:24:46Z</time>
      </trkpt>
      <trkpt lat="46.29928" lon="-0.59455">
        <ele>50</ele>
        <time>2012-10-18T15:24:51Z</time>
      </trkpt>
      <trkpt lat="46.29934" lon="-0.59455">
        <ele>50</ele>
        <time>2012-10-18T15:24:56Z</time>
      </trkpt>
      <trkpt lat="46.29939" lon="-0.59454">
        <ele>50</ele>
        <time>2012-10-18T15:25:01Z</time>
      </trkpt>
      <trkpt lat="46.29946" lon="-0.59454">
        <ele>51</ele>
        <time>2012-10-18T15:25:06Z</time>
      </trkpt>
      <trkpt lat="46.29952" lon="-0.59454">
        <ele>52</ele>
        <time>2012-10-18T15:25:11Z</time>
      </trkpt>
      <trkpt lat="46.29955" lon="-0.59455">
        <ele>52</ele>
        <time>2012-10-18T15:25:16Z</time>
      </trkpt>
      <trkpt lat="46.29961" lon="-0.59455">
        <ele>52</ele>
        <time>2012-10-18T15:25:21Z</time>
      </trkpt>
      <trkpt lat="46.29964" lon="-0.59454">
        <ele>52</ele>
        <time>2012-10-18T15:25:26Z</time>
      </trkpt>
      <trkpt lat="46.2997" lon="-0.59453">
        <ele>51</ele>
        <time>2012-10-18T15:25:31Z</time>
      </trkpt>
      <trkpt lat="46.29974" lon="-0.59453">
        <ele>51</ele>
        <time>2012-10-18T15:25:36Z</time>
      </trkpt>
      <trkpt lat="46.2998" lon="-0.59453">
        <ele>51</ele>
        <time>2012-10-18T15:25:41Z</time>
      </trkpt>
      <trkpt lat="46.29984" lon="-0.59453">
        <ele>50</ele>
        <time>2012-10-18T15:25:46Z</time>
      </trkpt>
      <trkpt lat="46.2999" lon="-0.59453">
        <ele>50</ele>
        <time>2012-10-18T15:25:51Z</time>
      </trkpt>
      <trkpt lat="46.29995" lon="-0.59455">
        <ele>51</ele>
        <time>2012-10-18T15:25:56Z</time>
      </trkpt>
      <trkpt lat="46.29997" lon="-0.59457">
        <ele>50</ele>
        <time>2012-10-18T15:26:01Z</time>
      </trkpt>
      <trkpt lat="46.29999" lon="-0.59458">
        <ele>49</ele>
        <time>2012-10-18T15:26:06Z</time>
      </trkpt>
      <trkpt lat="46.30001" lon="-0.59463">
        <ele>48</ele>
        <time>2012-10-18T15:26:11Z</time>
      </trkpt>
      <trkpt lat="46.30001" lon="-0.59466">
        <ele>49</ele>
        <time>2012-10-18T15:26:16Z</time>
      </trkpt>
      <trkpt lat="46.30001" lon="-0.59467">
        <ele>49</ele>
        <time>2012-10-18T15:26:21Z</time>
      </trkpt>
      <trkpt lat="46.3" lon="-0.59466">
        <ele>49</ele>
        <time>2012-10-18T15:26:26Z</time>
      </trkpt>
      <trkpt lat="46.30001" lon="-0.59466">
        <ele>50</ele>
        <time>2012-10-18T15:26:41Z</time>
      </trkpt>
      <trkpt lat="46.30002" lon="-0.59473">
        <ele>50</ele>
        <time>2012-10-18T15:26:46Z</time>
      </trkpt>
      <trkpt lat="46.30003" lon="-0.59481">
        <ele>51</ele>
        <time>2012-10-18T15:26:51Z</time>
      </trkpt>
      <trkpt lat="46.30004" lon="-0.59487">
        <ele>52</ele>
        <time>2012-10-18T15:26:56Z</time>
      </trkpt>
      <trkpt lat="46.30004" lon="-0.59492">
        <ele>52</ele>
        <time>2012-10-18T15:27:01Z</time>
      </trkpt>
      <trkpt lat="46.30006" lon="-0.595">
        <ele>53</ele>
        <time>2012-10-18T15:27:06Z</time>
      </trkpt>
      <trkpt lat="46.30007" lon="-0.59507">
        <ele>53</ele>
        <time>2012-10-18T15:27:11Z</time>
      </trkpt>
      <trkpt lat="46.30009" lon="-0.59516">
        <ele>53</ele>
        <time>2012-10-18T15:27:16Z</time>
      </trkpt>
      <trkpt lat="46.3001" lon="-0.59521">
        <ele>52</ele>
        <time>2012-10-18T15:27:21Z</time>
      </trkpt>
      <trkpt lat="46.30011" lon="-0.59529">
        <ele>53</ele>
        <time>2012-10-18T15:27:26Z</time>
      </trkpt>
      <trkpt lat="46.30011" lon="-0.59535">
        <ele>52</ele>
        <time>2012-10-18T15:27:31Z</time>
      </trkpt>
      <trkpt lat="46.30013" lon="-0.5954">
        <ele>53</ele>
        <time>2012-10-18T15:27:36Z</time>
      </trkpt>
      <trkpt lat="46.30014" lon="-0.59547">
        <ele>53</ele>
        <time>2012-10-18T15:27:41Z</time>
      </trkpt>
      <trkpt lat="46.30019" lon="-0.59548">
        <ele>47</ele>
        <time>2012-10-18T15:27:46Z</time>
      </trkpt>
      <trkpt lat="46.30021" lon="-0.59553">
        <ele>46</ele>
        <time>2012-10-18T15:27:51Z</time>
      </trkpt>
      <trkpt lat="46.30022" lon="-0.5956">
        <ele>46</ele>
        <time>2012-10-18T15:27:56Z</time>
      </trkpt>
      <trkpt lat="46.30022" lon="-0.5957">
        <ele>47</ele>
        <time>2012-10-18T15:28:01Z</time>
      </trkpt>
      <trkpt lat="46.30022" lon="-0.59579">
        <ele>48</ele>
        <time>2012-10-18T15:28:06Z</time>
      </trkpt>
      <trkpt lat="46.30023" lon="-0.59588">
        <ele>47</ele>
        <time>2012-10-18T15:28:11Z</time>
      </trkpt>
      <trkpt lat="46.30024" lon="-0.59597">
        <ele>50</ele>
        <time>2012-10-18T15:28:16Z</time>
      </trkpt>
      <trkpt lat="46.30026" lon="-0.59604">
        <ele>50</ele>
        <time>2012-10-18T15:28:21Z</time>
      </trkpt>
      <trkpt lat="46.30027" lon="-0.59612">
        <ele>51</ele>
        <time>2012-10-18T15:28:26Z</time>
      </trkpt>
      <trkpt lat="46.30028" lon="-0.5962">
        <ele>53</ele>
        <time>2012-10-18T15:28:31Z</time>
      </trkpt>
      <trkpt lat="46.30028" lon="-0.59629">
        <ele>54</ele>
        <time>2012-10-18T15:28:36Z</time>
      </trkpt>
      <trkpt lat="46.3003" lon="-0.59633">
        <ele>53</ele>
        <time>2012-10-18T15:28:41Z</time>
      </trkpt>
      <trkpt lat="46.30032" lon="-0.59641">
        <ele>54</ele>
        <time>2012-10-18T15:28:46Z</time>
      </trkpt>
      <trkpt lat="46.30032" lon="-0.59647">
        <ele>52</ele>
        <time>2012-10-18T15:28:51Z</time>
      </trkpt>
      <trkpt lat="46.30033" lon="-0.59656">
        <ele>55</ele>
        <time>2012-10-18T15:28:56Z</time>
      </trkpt>
      <trkpt lat="46.30033" lon="-0.59664">
        <ele>57</ele>
        <time>2012-10-18T15:29:01Z</time>
      </trkpt>
      <trkpt lat="46.30035" lon="-0.59671">
        <ele>56</ele>
        <time>2012-10-18T15:29:06Z</time>
      </trkpt>
      <trkpt lat="46.30036" lon="-0.59679">
        <ele>56</ele>
        <time>2012-10-18T15:29:11Z</time>
      </trkpt>
      <trkpt lat="46.30038" lon="-0.59687">
        <ele>57</ele>
        <time>2012-10-18T15:29:16Z</time>
      </trkpt>
      <trkpt lat="46.3004" lon="-0.59691">
        <ele>56</ele>
        <time>2012-10-18T15:29:21Z</time>
      </trkpt>
      <trkpt lat="46.30043" lon="-0.59697">
        <ele>55</ele>
        <time>2012-10-18T15:29:26Z</time>
      </trkpt>
      <trkpt lat="46.30044" lon="-0.59701">
        <ele>54</ele>
        <time>2012-10-18T15:29:31Z</time>
      </trkpt>
      <trkpt lat="46.30045" lon="-0.5971">
        <ele>56</ele>
        <time>2012-10-18T15:29:36Z</time>
      </trkpt>
      <trkpt lat="46.30047" lon="-0.59715">
        <ele>53</ele>
        <time>2012-10-18T15:29:41Z</time>
      </trkpt>
      <trkpt lat="46.30047" lon="-0.59722">
        <ele>55</ele>
        <time>2012-10-18T15:29:46Z</time>
      </trkpt>
      <trkpt lat="46.3005" lon="-0.59729">
        <ele>53</ele>
        <time>2012-10-18T15:29:51Z</time>
      </trkpt>
      <trkpt lat="46.3005" lon="-0.59734">
        <ele>52</ele>
        <time>2012-10-18T15:29:56Z</time>
      </trkpt>
      <trkpt lat="46.30052" lon="-0.59744">
        <ele>51</ele>
        <time>2012-10-18T15:30:01Z</time>
      </trkpt>
      <trkpt lat="46.30054" lon="-0.5975">
        <ele>53</ele>
        <time>2012-10-18T15:30:06Z</time>
      </trkpt>
      <trkpt lat="46.30054" lon="-0.5976">
        <ele>53</ele>
        <time>2012-10-18T15:30:11Z</time>
      </trkpt>
      <trkpt lat="46.30059" lon="-0.59766">
        <ele>52</ele>
        <time>2012-10-18T15:30:16Z</time>
      </trkpt>
      <trkpt lat="46.30061" lon="-0.59772">
        <ele>51</ele>
        <time>2012-10-18T15:30:21Z</time>
      </trkpt>
      <trkpt lat="46.30061" lon="-0.59785">
        <ele>53</ele>
        <time>2012-10-18T15:30:26Z</time>
      </trkpt>
      <trkpt lat="46.30065" lon="-0.5979">
        <ele>53</ele>
        <time>2012-10-18T15:30:31Z</time>
      </trkpt>
      <trkpt lat="46.30068" lon="-0.59797">
        <ele>54</ele>
        <time>2012-10-18T15:30:36Z</time>
      </trkpt>
      <trkpt lat="46.30069" lon="-0.59803">
        <ele>54</ele>
        <time>2012-10-18T15:30:41Z</time>
      </trkpt>
      <trkpt lat="46.30073" lon="-0.59809">
        <ele>54</ele>
        <time>2012-10-18T15:30:46Z</time>
      </trkpt>
      <trkpt lat="46.30075" lon="-0.59816">
        <ele>54</ele>
        <time>2012-10-18T15:30:51Z</time>
      </trkpt>
      <trkpt lat="46.30076" lon="-0.59823">
        <ele>56</ele>
        <time>2012-10-18T15:30:56Z</time>
      </trkpt>
      <trkpt lat="46.30077" lon="-0.59833">
        <ele>60</ele>
        <time>2012-10-18T15:31:01Z</time>
      </trkpt>
      <trkpt lat="46.3008" lon="-0.59838">
        <ele>60</ele>
        <time>2012-10-18T15:31:06Z</time>
      </trkpt>
      <trkpt lat="46.30084" lon="-0.59848">
        <ele>61</ele>
        <time>2012-10-18T15:31:11Z</time>
      </trkpt>
      <trkpt lat="46.30088" lon="-0.59852">
        <ele>61</ele>
        <time>2012-10-18T15:31:16Z</time>
      </trkpt>
      <trkpt lat="46.30091" lon="-0.5986">
        <ele>61</ele>
        <time>2012-10-18T15:31:21Z</time>
      </trkpt>
      <trkpt lat="46.30096" lon="-0.59862">
        <ele>54</ele>
        <time>2012-10-18T15:31:26Z</time>
      </trkpt>
      <trkpt lat="46.30099" lon="-0.59865">
        <ele>51</ele>
        <time>2012-10-18T15:31:31Z</time>
      </trkpt>
      <trkpt lat="46.30099" lon="-0.5987">
        <ele>53</ele>
        <time>2012-10-18T15:31:36Z</time>
      </trkpt>
      <trkpt lat="46.30099" lon="-0.59872">
        <ele>55</ele>
        <time>2012-10-18T15:31:41Z</time>
      </trkpt>
      <trkpt lat="46.30098" lon="-0.59873">
        <ele>56</ele>
        <time>2012-10-18T15:32:01Z</time>
      </trkpt>
      <trkpt lat="46.30099" lon="-0.59875">
        <ele>60</ele>
        <time>2012-10-18T15:32:06Z</time>
      </trkpt>
      <trkpt lat="46.30099" lon="-0.59879">
        <ele>59</ele>
        <time>2012-10-18T15:32:11Z</time>
      </trkpt>
      <trkpt lat="46.30099" lon="-0.59886">
        <ele>57</ele>
        <time>2012-10-18T15:32:16Z</time>
      </trkpt>
      <trkpt lat="46.30098" lon="-0.59893">
        <ele>57</ele>
        <time>2012-10-18T15:32:21Z</time>
      </trkpt>
      <trkpt lat="46.30098" lon="-0.59902">
        <ele>58</ele>
        <time>2012-10-18T15:32:26Z</time>
      </trkpt>
      <trkpt lat="46.30098" lon="-0.59908">
        <ele>59</ele>
        <time>2012-10-18T15:32:31Z</time>
      </trkpt>
      <trkpt lat="46.30098" lon="-0.59914">
        <ele>60</ele>
        <time>2012-10-18T15:32:36Z</time>
      </trkpt>
      <trkpt lat="46.30097" lon="-0.59929">
        <ele>59</ele>
        <time>2012-10-18T15:32:41Z</time>
      </trkpt>
      <trkpt lat="46.30096" lon="-0.59937">
        <ele>58</ele>
        <time>2012-10-18T15:32:46Z</time>
      </trkpt>
      <trkpt lat="46.30096" lon="-0.59946">
        <ele>57</ele>
        <time>2012-10-18T15:32:51Z</time>
      </trkpt>
      <trkpt lat="46.30096" lon="-0.59952">
        <ele>59</ele>
        <time>2012-10-18T15:32:56Z</time>
      </trkpt>
      <trkpt lat="46.30096" lon="-0.59958">
        <ele>62</ele>
        <time>2012-10-18T15:33:01Z</time>
      </trkpt>
      <trkpt lat="46.30094" lon="-0.59968">
        <ele>62</ele>
        <time>2012-10-18T15:33:06Z</time>
      </trkpt>
      <trkpt lat="46.30096" lon="-0.59983">
        <ele>59</ele>
        <time>2012-10-18T15:33:11Z</time>
      </trkpt>
      <trkpt lat="46.30098" lon="-0.59992">
        <ele>52</ele>
        <time>2012-10-18T15:33:16Z</time>
      </trkpt>
      <trkpt lat="46.30096" lon="-0.6">
        <ele>50</ele>
        <time>2012-10-18T15:33:21Z</time>
      </trkpt>
      <trkpt lat="46.30098" lon="-0.60011">
        <ele>52</ele>
        <time>2012-10-18T15:33:26Z</time>
      </trkpt>
      <trkpt lat="46.30099" lon="-0.6002">
        <ele>54</ele>
        <time>2012-10-18T15:33:31Z</time>
      </trkpt>
      <trkpt lat="46.30104" lon="-0.60026">
        <ele>54</ele>
        <time>2012-10-18T15:33:36Z</time>
      </trkpt>
      <trkpt lat="46.30106" lon="-0.60029">
        <ele>53</ele>
        <time>2012-10-18T15:33:41Z</time>
      </trkpt>
      <trkpt lat="46.30112" lon="-0.60032">
        <ele>53</ele>
        <time>2012-10-18T15:33:46Z</time>
      </trkpt>
      <trkpt lat="46.30118" lon="-0.60035">
        <ele>53</ele>
        <time>2012-10-18T15:33:51Z</time>
      </trkpt>
      <trkpt lat="46.30122" lon="-0.60036">
        <ele>54</ele>
        <time>2012-10-18T15:33:56Z</time>
      </trkpt>
      <trkpt lat="46.30124" lon="-0.60037">
        <ele>54</ele>
        <time>2012-10-18T15:34:01Z</time>
      </trkpt>
      <trkpt lat="46.30131" lon="-0.60042">
        <ele>54</ele>
        <time>2012-10-18T15:34:06Z</time>
      </trkpt>
      <trkpt lat="46.30134" lon="-0.60044">
        <ele>55</ele>
        <time>2012-10-18T15:34:11Z</time>
      </trkpt>
      <trkpt lat="46.30139" lon="-0.60044">
        <ele>55</ele>
        <time>2012-10-18T15:34:16Z</time>
      </trkpt>
      <trkpt lat="46.30145" lon="-0.60049">
        <ele>56</ele>
        <time>2012-10-18T15:34:21Z</time>
      </trkpt>
      <trkpt lat="46.30148" lon="-0.6005">
        <ele>56</ele>
        <time>2012-10-18T15:34:26Z</time>
      </trkpt>
      <trkpt lat="46.30154" lon="-0.60053">
        <ele>57</ele>
        <time>2012-10-18T15:34:31Z</time>
      </trkpt>
      <trkpt lat="46.30157" lon="-0.60057">
        <ele>53</ele>
        <time>2012-10-18T15:34:36Z</time>
      </trkpt>
      <trkpt lat="46.30163" lon="-0.60058">
        <ele>52</ele>
        <time>2012-10-18T15:34:41Z</time>
      </trkpt>
      <trkpt lat="46.30164" lon="-0.6006">
        <ele>51</ele>
        <time>2012-10-18T15:34:46Z</time>
      </trkpt>
      <trkpt lat="46.30168" lon="-0.60063">
        <ele>49</ele>
        <time>2012-10-18T15:34:51Z</time>
      </trkpt>
      <trkpt lat="46.30176" lon="-0.60065">
        <ele>50</ele>
        <time>2012-10-18T15:34:56Z</time>
      </trkpt>
      <trkpt lat="46.30177" lon="-0.60066">
        <ele>51</ele>
        <time>2012-10-18T15:35:01Z</time>
      </trkpt>
      <trkpt lat="46.30182" lon="-0.60067">
        <ele>52</ele>
        <time>2012-10-18T15:35:06Z</time>
      </trkpt>
      <trkpt lat="46.30186" lon="-0.60069">
        <ele>52</ele>
        <time>2012-10-18T15:35:11Z</time>
      </trkpt>
      <trkpt lat="46.30191" lon="-0.60069">
        <ele>52</ele>
        <time>2012-10-18T15:35:16Z</time>
      </trkpt>
      <trkpt lat="46.30198" lon="-0.60071">
        <ele>53</ele>
        <time>2012-10-18T15:35:21Z</time>
      </trkpt>
      <trkpt lat="46.30202" lon="-0.60074">
        <ele>52</ele>
        <time>2012-10-18T15:35:26Z</time>
      </trkpt>
      <trkpt lat="46.30206" lon="-0.60075">
        <ele>52</ele>
        <time>2012-10-18T15:35:31Z</time>
      </trkpt>
      <trkpt lat="46.30208" lon="-0.60076">
        <ele>52</ele>
        <time>2012-10-18T15:35:36Z</time>
      </trkpt>
      <trkpt lat="46.30213" lon="-0.60078">
        <ele>54</ele>
        <time>2012-10-18T15:35:41Z</time>
      </trkpt>
      <trkpt lat="46.30215" lon="-0.60078">
        <ele>54</ele>
        <time>2012-10-18T15:35:46Z</time>
      </trkpt>
      <trkpt lat="46.30219" lon="-0.6008">
        <ele>53</ele>
        <time>2012-10-18T15:35:51Z</time>
      </trkpt>
      <trkpt lat="46.30228" lon="-0.60087">
        <ele>54</ele>
        <time>2012-10-18T15:35:56Z</time>
      </trkpt>
      <trkpt lat="46.30235" lon="-0.60089">
        <ele>53</ele>
        <time>2012-10-18T15:36:01Z</time>
      </trkpt>
      <trkpt lat="46.30238" lon="-0.60093">
        <ele>53</ele>
        <time>2012-10-18T15:36:06Z</time>
      </trkpt>
      <trkpt lat="46.30243" lon="-0.60095">
        <ele>52</ele>
        <time>2012-10-18T15:36:11Z</time>
      </trkpt>
      <trkpt lat="46.30248" lon="-0.601">
        <ele>51</ele>
        <time>2012-10-18T15:36:16Z</time>
      </trkpt>
      <trkpt lat="46.30251" lon="-0.60103">
        <ele>51</ele>
        <time>2012-10-18T15:36:21Z</time>
      </trkpt>
      <trkpt lat="46.30255" lon="-0.60106">
        <ele>51</ele>
        <time>2012-10-18T15:36:26Z</time>
      </trkpt>
      <trkpt lat="46.30253" lon="-0.60105">
        <ele>51</ele>
        <time>2012-10-18T15:36:31Z</time>
      </trkpt>
      <trkpt lat="46.30253" lon="-0.60105">
        <ele>51</ele>
        <time>2012-10-18T15:36:36Z</time>
      </trkpt>
      <trkpt lat="46.30253" lon="-0.60105">
        <ele>51</ele>
        <time>2012-10-18T15:36:46Z</time>
      </trkpt>
      <trkpt lat="46.30257" lon="-0.60106">
        <ele>53</ele>
        <time>2012-10-18T15:36:56Z</time>
      </trkpt>
      <trkpt lat="46.30259" lon="-0.60109">
        <ele>54</ele>
        <time>2012-10-18T15:37:01Z</time>
      </trkpt>
      <trkpt lat="46.30264" lon="-0.60113">
        <ele>56</ele>
        <time>2012-10-18T15:37:06Z</time>
      </trkpt>
      <trkpt lat="46.30269" lon="-0.60118">
        <ele>56</ele>
        <time>2012-10-18T15:37:11Z</time>
      </trkpt>
      <trkpt lat="46.30273" lon="-0.60117">
        <ele>55</ele>
        <time>2012-10-18T15:37:16Z</time>
      </trkpt>
      <trkpt lat="46.30277" lon="-0.60117">
        <ele>55</ele>
        <time>2012-10-18T15:37:21Z</time>
      </trkpt>
      <trkpt lat="46.30282" lon="-0.60119">
        <ele>54</ele>
        <time>2012-10-18T15:37:26Z</time>
      </trkpt>
      <trkpt lat="46.30282" lon="-0.60121">
        <ele>54</ele>
        <time>2012-10-18T15:37:31Z</time>
      </trkpt>
      <trkpt lat="46.30284" lon="-0.60123">
        <ele>54</ele>
        <time>2012-10-18T15:37:36Z</time>
      </trkpt>
      <trkpt lat="46.30289" lon="-0.60126">
        <ele>55</ele>
        <time>2012-10-18T15:37:41Z</time>
      </trkpt>
      <trkpt lat="46.30292" lon="-0.60128">
        <ele>55</ele>
        <time>2012-10-18T15:37:46Z</time>
      </trkpt>
      <trkpt lat="46.30303" lon="-0.60134">
        <ele>55</ele>
        <time>2012-10-18T15:37:51Z</time>
      </trkpt>
      <trkpt lat="46.30308" lon="-0.60139">
        <ele>56</ele>
        <time>2012-10-18T15:37:56Z</time>
      </trkpt>
      <trkpt lat="46.30312" lon="-0.60141">
        <ele>55</ele>
        <time>2012-10-18T15:38:01Z</time>
      </trkpt>
      <trkpt lat="46.30316" lon="-0.60144">
        <ele>54</ele>
        <time>2012-10-18T15:38:06Z</time>
      </trkpt>
      <trkpt lat="46.3032" lon="-0.60146">
        <ele>54</ele>
        <time>2012-10-18T15:38:11Z</time>
      </trkpt>
      <trkpt lat="46.30322" lon="-0.60147">
        <ele>54</ele>
        <time>2012-10-18T15:38:16Z</time>
      </trkpt>
      <trkpt lat="46.30322" lon="-0.60147">
        <ele>54</ele>
        <time>2012-10-18T15:38:21Z</time>
      </trkpt>
      <trkpt lat="46.30331" lon="-0.60155">
        <ele>54</ele>
        <time>2012-10-18T15:38:26Z</time>
      </trkpt>
      <trkpt lat="46.30343" lon="-0.60155">
        <ele>52</ele>
        <time>2012-10-18T15:38:31Z</time>
      </trkpt>
      <trkpt lat="46.30352" lon="-0.60152">
        <ele>52</ele>
        <time>2012-10-18T15:38:36Z</time>
      </trkpt>
      <trkpt lat="46.30354" lon="-0.60145">
        <ele>49</ele>
        <time>2012-10-18T15:38:41Z</time>
      </trkpt>
      <trkpt lat="46.30355" lon="-0.60137">
        <ele>49</ele>
        <time>2012-10-18T15:38:46Z</time>
      </trkpt>
      <trkpt lat="46.30359" lon="-0.60132">
        <ele>50</ele>
        <time>2012-10-18T15:38:51Z</time>
      </trkpt>
      <trkpt lat="46.30362" lon="-0.60127">
        <ele>51</ele>
        <time>2012-10-18T15:38:56Z</time>
      </trkpt>
      <trkpt lat="46.30364" lon="-0.60115">
        <ele>53</ele>
        <time>2012-10-18T15:39:01Z</time>
      </trkpt>
      <trkpt lat="46.30366" lon="-0.6011">
        <ele>52</ele>
        <time>2012-10-18T15:39:06Z</time>
      </trkpt>
      <trkpt lat="46.30366" lon="-0.60103">
        <ele>52</ele>
        <time>2012-10-18T15:39:11Z</time>
      </trkpt>
      <trkpt lat="46.30369" lon="-0.60096">
        <ele>54</ele>
        <time>2012-10-18T15:39:16Z</time>
      </trkpt>
      <trkpt lat="46.30372" lon="-0.60089">
        <ele>56</ele>
        <time>2012-10-18T15:39:21Z</time>
      </trkpt>
      <trkpt lat="46.30376" lon="-0.60081">
        <ele>58</ele>
        <time>2012-10-18T15:39:26Z</time>
      </trkpt>
      <trkpt lat="46.30378" lon="-0.60075">
        <ele>59</ele>
        <time>2012-10-18T15:39:31Z</time>
      </trkpt>
      <trkpt lat="46.30382" lon="-0.60071">
        <ele>56</ele>
        <time>2012-10-18T15:39:36Z</time>
      </trkpt>
      <trkpt lat="46.30383" lon="-0.60064">
        <ele>54</ele>
        <time>2012-10-18T15:39:41Z</time>
      </trkpt>
      <trkpt lat="46.30385" lon="-0.60057">
        <ele>55</ele>
        <time>2012-10-18T15:39:46Z</time>
      </trkpt>
      <trkpt lat="46.30385" lon="-0.60051">
        <ele>51</ele>
        <time>2012-10-18T15:39:51Z</time>
      </trkpt>
      <trkpt lat="46.30386" lon="-0.60044">
        <ele>52</ele>
        <time>2012-10-18T15:39:56Z</time>
      </trkpt>
      <trkpt lat="46.30388" lon="-0.60038">
        <ele>52</ele>
        <time>2012-10-18T15:40:01Z</time>
      </trkpt>
      <trkpt lat="46.3039" lon="-0.60028">
        <ele>51</ele>
        <time>2012-10-18T15:40:06Z</time>
      </trkpt>
      <trkpt lat="46.30389" lon="-0.60025">
        <ele>45</ele>
        <time>2012-10-18T15:40:11Z</time>
      </trkpt>
      <trkpt lat="46.30388" lon="-0.60023">
        <ele>41</ele>
        <time>2012-10-18T15:40:16Z</time>
      </trkpt>
      <trkpt lat="46.3039" lon="-0.60017">
        <ele>43</ele>
        <time>2012-10-18T15:40:21Z</time>
      </trkpt>
      <trkpt lat="46.30393" lon="-0.60013">
        <ele>43</ele>
        <time>2012-10-18T15:40:26Z</time>
      </trkpt>
      <trkpt lat="46.30397" lon="-0.60005">
        <ele>45</ele>
        <time>2012-10-18T15:40:31Z</time>
      </trkpt>
      <trkpt lat="46.304" lon="-0.59996">
        <ele>48</ele>
        <time>2012-10-18T15:40:36Z</time>
      </trkpt>
      <trkpt lat="46.30405" lon="-0.59987">
        <ele>54</ele>
        <time>2012-10-18T15:40:41Z</time>
      </trkpt>
      <trkpt lat="46.3041" lon="-0.59982">
        <ele>56</ele>
        <time>2012-10-18T15:40:46Z</time>
      </trkpt>
      <trkpt lat="46.30405" lon="-0.5998">
        <ele>42</ele>
        <time>2012-10-18T15:40:51Z</time>
      </trkpt>
      <trkpt lat="46.30403" lon="-0.59973">
        <ele>37</ele>
        <time>2012-10-18T15:40:56Z</time>
      </trkpt>
      <trkpt lat="46.30408" lon="-0.59964">
        <ele>41</ele>
        <time>2012-10-18T15:41:01Z</time>
      </trkpt>
      <trkpt lat="46.30412" lon="-0.59955">
        <ele>46</ele>
        <time>2012-10-18T15:41:06Z</time>
      </trkpt>
      <trkpt lat="46.30414" lon="-0.59947">
        <ele>47</ele>
        <time>2012-10-18T15:41:11Z</time>
      </trkpt>
      <trkpt lat="46.30417" lon="-0.5994">
        <ele>48</ele>
        <time>2012-10-18T15:41:16Z</time>
      </trkpt>
      <trkpt lat="46.30419" lon="-0.59933">
        <ele>47</ele>
        <time>2012-10-18T15:41:21Z</time>
      </trkpt>
      <trkpt lat="46.30421" lon="-0.59927">
        <ele>48</ele>
        <time>2012-10-18T15:41:26Z</time>
      </trkpt>
      <trkpt lat="46.30425" lon="-0.59921">
        <ele>48</ele>
        <time>2012-10-18T15:41:31Z</time>
      </trkpt>
      <trkpt lat="46.30427" lon="-0.59914">
        <ele>49</ele>
        <time>2012-10-18T15:41:36Z</time>
      </trkpt>
      <trkpt lat="46.30429" lon="-0.59907">
        <ele>49</ele>
        <time>2012-10-18T15:41:41Z</time>
      </trkpt>
      <trkpt lat="46.30433" lon="-0.59899">
        <ele>52</ele>
        <time>2012-10-18T15:41:46Z</time>
      </trkpt>
      <trkpt lat="46.30436" lon="-0.59892">
        <ele>53</ele>
        <time>2012-10-18T15:41:51Z</time>
      </trkpt>
      <trkpt lat="46.30436" lon="-0.59882">
        <ele>54</ele>
        <time>2012-10-18T15:41:56Z</time>
      </trkpt>
      <trkpt lat="46.3044" lon="-0.59877">
        <ele>54</ele>
        <time>2012-10-18T15:42:01Z</time>
      </trkpt>
      <trkpt lat="46.30441" lon="-0.59867">
        <ele>54</ele>
        <time>2012-10-18T15:42:06Z</time>
      </trkpt>
      <trkpt lat="46.30444" lon="-0.59864">
        <ele>54</ele>
        <time>2012-10-18T15:42:11Z</time>
      </trkpt>
      <trkpt lat="46.30445" lon="-0.59853">
        <ele>55</ele>
        <time>2012-10-18T15:42:16Z</time>
      </trkpt>
      <trkpt lat="46.30445" lon="-0.59845">
        <ele>55</ele>
        <time>2012-10-18T15:42:21Z</time>
      </trkpt>
      <trkpt lat="46.30444" lon="-0.59839">
        <ele>56</ele>
        <time>2012-10-18T15:42:26Z</time>
      </trkpt>
      <trkpt lat="46.30449" lon="-0.59831">
        <ele>60</ele>
        <time>2012-10-18T15:42:31Z</time>
      </trkpt>
      <trkpt lat="46.30449" lon="-0.59826">
        <ele>56</ele>
        <time>2012-10-18T15:42:36Z</time>
      </trkpt>
      <trkpt lat="46.30451" lon="-0.59818">
        <ele>54</ele>
        <time>2012-10-18T15:42:41Z</time>
      </trkpt>
      <trkpt lat="46.30454" lon="-0.59811">
        <ele>54</ele>
        <time>2012-10-18T15:42:46Z</time>
      </trkpt>
      <trkpt lat="46.30453" lon="-0.59804">
        <ele>52</ele>
        <time>2012-10-18T15:42:51Z</time>
      </trkpt>
      <trkpt lat="46.30454" lon="-0.59797">
        <ele>50</ele>
        <time>2012-10-18T15:42:56Z</time>
      </trkpt>
      <trkpt lat="46.30453" lon="-0.59792">
        <ele>46</ele>
        <time>2012-10-18T15:43:01Z</time>
      </trkpt>
      <trkpt lat="46.30455" lon="-0.59786">
        <ele>44</ele>
        <time>2012-10-18T15:43:06Z</time>
      </trkpt>
      <trkpt lat="46.30455" lon="-0.59779">
        <ele>45</ele>
        <time>2012-10-18T15:43:11Z</time>
      </trkpt>
      <trkpt lat="46.30458" lon="-0.59772">
        <ele>45</ele>
        <time>2012-10-18T15:43:16Z</time>
      </trkpt>
      <trkpt lat="46.30457" lon="-0.59766">
        <ele>41</ele>
        <time>2012-10-18T15:43:21Z</time>
      </trkpt>
      <trkpt lat="46.30459" lon="-0.59754">
        <ele>48</ele>
        <time>2012-10-18T15:43:26Z</time>
      </trkpt>
      <trkpt lat="46.30459" lon="-0.59753">
        <ele>48</ele>
        <time>2012-10-18T15:43:31Z</time>
      </trkpt>
      <trkpt lat="46.30455" lon="-0.59751">
        <ele>49</ele>
        <time>2012-10-18T15:43:36Z</time>
      </trkpt>
      <trkpt lat="46.30452" lon="-0.59746">
        <ele>48</ele>
        <time>2012-10-18T15:43:41Z</time>
      </trkpt>
      <trkpt lat="46.30448" lon="-0.59739">
        <ele>48</ele>
        <time>2012-10-18T15:43:46Z</time>
      </trkpt>
      <trkpt lat="46.30444" lon="-0.59735">
        <ele>48</ele>
        <time>2012-10-18T15:43:51Z</time>
      </trkpt>
      <trkpt lat="46.30442" lon="-0.59736">
        <ele>49</ele>
        <time>2012-10-18T15:43:56Z</time>
      </trkpt>
      <trkpt lat="46.30437" lon="-0.59734">
        <ele>49</ele>
        <time>2012-10-18T15:44:01Z</time>
      </trkpt>
      <trkpt lat="46.30434" lon="-0.59732">
        <ele>47</ele>
        <time>2012-10-18T15:44:06Z</time>
      </trkpt>
      <trkpt lat="46.30435" lon="-0.59726">
        <ele>50</ele>
        <time>2012-10-18T15:44:11Z</time>
      </trkpt>
      <trkpt lat="46.30439" lon="-0.59722">
        <ele>50</ele>
        <time>2012-10-18T15:44:16Z</time>
      </trkpt>
      <trkpt lat="46.30439" lon="-0.59722">
        <ele>50</ele>
        <time>2012-10-18T15:44:21Z</time>
      </trkpt>
      <trkpt lat="46.3044" lon="-0.59713">
        <ele>51</ele>
        <time>2012-10-18T15:44:26Z</time>
      </trkpt>
      <trkpt lat="46.3044" lon="-0.59706">
        <ele>50</ele>
        <time>2012-10-18T15:44:31Z</time>
      </trkpt>
      <trkpt lat="46.3044" lon="-0.59702">
        <ele>49</ele>
        <time>2012-10-18T15:44:36Z</time>
      </trkpt>
      <trkpt lat="46.3044" lon="-0.59694">
        <ele>50</ele>
        <time>2012-10-18T15:44:41Z</time>
      </trkpt>
      <trkpt lat="46.30441" lon="-0.59683">
        <ele>50</ele>
        <time>2012-10-18T15:44:46Z</time>
      </trkpt>
      <trkpt lat="46.30445" lon="-0.59678">
        <ele>50</ele>
        <time>2012-10-18T15:44:51Z</time>
      </trkpt>
      <trkpt lat="46.30448" lon="-0.59669">
        <ele>51</ele>
        <time>2012-10-18T15:44:56Z</time>
      </trkpt>
      <trkpt lat="46.3045" lon="-0.59661">
        <ele>51</ele>
        <time>2012-10-18T15:45:01Z</time>
      </trkpt>
      <trkpt lat="46.3045" lon="-0.59655">
        <ele>53</ele>
        <time>2012-10-18T15:45:06Z</time>
      </trkpt>
      <trkpt lat="46.3045" lon="-0.59648">
        <ele>54</ele>
        <time>2012-10-18T15:45:11Z</time>
      </trkpt>
      <trkpt lat="46.30452" lon="-0.59643">
        <ele>53</ele>
        <time>2012-10-18T15:45:16Z</time>
      </trkpt>
      <trkpt lat="46.30454" lon="-0.59635">
        <ele>54</ele>
        <time>2012-10-18T15:45:21Z</time>
      </trkpt>
      <trkpt lat="46.30456" lon="-0.59628">
        <ele>54</ele>
        <time>2012-10-18T15:45:26Z</time>
      </trkpt>
      <trkpt lat="46.30456" lon="-0.59622">
        <ele>56</ele>
        <time>2012-10-18T15:45:31Z</time>
      </trkpt>
      <trkpt lat="46.30456" lon="-0.59616">
        <ele>56</ele>
        <time>2012-10-18T15:45:36Z</time>
      </trkpt>
      <trkpt lat="46.30457" lon="-0.59605">
        <ele>60</ele>
        <time>2012-10-18T15:45:41Z</time>
      </trkpt>
      <trkpt lat="46.30456" lon="-0.59602">
        <ele>55</ele>
        <time>2012-10-18T15:45:46Z</time>
      </trkpt>
      <trkpt lat="46.30456" lon="-0.59597">
        <ele>55</ele>
        <time>2012-10-18T15:45:51Z</time>
      </trkpt>
      <trkpt lat="46.30455" lon="-0.59592">
        <ele>54</ele>
        <time>2012-10-18T15:45:56Z</time>
      </trkpt>
      <trkpt lat="46.30454" lon="-0.59584">
        <ele>53</ele>
        <time>2012-10-18T15:46:01Z</time>
      </trkpt>
      <trkpt lat="46.30454" lon="-0.59575">
        <ele>53</ele>
        <time>2012-10-18T15:46:06Z</time>
      </trkpt>
      <trkpt lat="46.30453" lon="-0.59577">
        <ele>52</ele>
        <time>2012-10-18T15:46:11Z</time>
      </trkpt>
      <trkpt lat="46.30451" lon="-0.59574">
        <ele>51</ele>
        <time>2012-10-18T15:46:16Z</time>
      </trkpt>
      <trkpt lat="46.30449" lon="-0.59568">
        <ele>50</ele>
        <time>2012-10-18T15:46:21Z</time>
      </trkpt>
      <trkpt lat="46.30448" lon="-0.59556">
        <ele>49</ele>
        <time>2012-10-18T15:46:26Z</time>
      </trkpt>
      <trkpt lat="46.30448" lon="-0.59548">
        <ele>51</ele>
        <time>2012-10-18T15:46:31Z</time>
      </trkpt>
      <trkpt lat="46.30447" lon="-0.59547">
        <ele>50</ele>
        <time>2012-10-18T15:46:36Z</time>
      </trkpt>
      <trkpt lat="46.30444" lon="-0.59538">
        <ele>51</ele>
        <time>2012-10-18T15:46:41Z</time>
      </trkpt>
      <trkpt lat="46.30442" lon="-0.59528">
        <ele>52</ele>
        <time>2012-10-18T15:46:46Z</time>
      </trkpt>
      <trkpt lat="46.30442" lon="-0.59527">
        <ele>52</ele>
        <time>2012-10-18T15:46:51Z</time>
      </trkpt>
      <trkpt lat="46.30441" lon="-0.59525">
        <ele>51</ele>
        <time>2012-10-18T15:46:56Z</time>
      </trkpt>
      <trkpt lat="46.3044" lon="-0.59525">
        <ele>51</ele>
        <time>2012-10-18T15:47:01Z</time>
      </trkpt>
      <trkpt lat="46.30438" lon="-0.59519">
        <ele>51</ele>
        <time>2012-10-18T15:47:06Z</time>
      </trkpt>
      <trkpt lat="46.30438" lon="-0.59513">
        <ele>50</ele>
        <time>2012-10-18T15:47:11Z</time>
      </trkpt>
      <trkpt lat="46.3043" lon="-0.59496">
        <ele>50</ele>
        <time>2012-10-18T15:47:16Z</time>
      </trkpt>
      <trkpt lat="46.3043" lon="-0.59484">
        <ele>52</ele>
        <time>2012-10-18T15:47:21Z</time>
      </trkpt>
      <trkpt lat="46.30428" lon="-0.59481">
        <ele>51</ele>
        <time>2012-10-18T15:47:26Z</time>
      </trkpt>
      <trkpt lat="46.30429" lon="-0.59472">
        <ele>53</ele>
        <time>2012-10-18T15:47:31Z</time>
      </trkpt>
      <trkpt lat="46.30426" lon="-0.59472">
        <ele>51</ele>
        <time>2012-10-18T15:47:36Z</time>
      </trkpt>
      <trkpt lat="46.30427" lon="-0.59472">
        <ele>52</ele>
        <time>2012-10-18T15:47:41Z</time>
      </trkpt>
      <trkpt lat="46.30426" lon="-0.5947">
        <ele>52</ele>
        <time>2012-10-18T15:47:46Z</time>
      </trkpt>
      <trkpt lat="46.30425" lon="-0.59464">
        <ele>51</ele>
        <time>2012-10-18T15:47:51Z</time>
      </trkpt>
      <trkpt lat="46.30421" lon="-0.59455">
        <ele>52</ele>
        <time>2012-10-18T15:47:56Z</time>
      </trkpt>
      <trkpt lat="46.30421" lon="-0.59455">
        <ele>52</ele>
        <time>2012-10-18T15:48:01Z</time>
      </trkpt>
      <trkpt lat="46.3042" lon="-0.59454">
        <ele>51</ele>
        <time>2012-10-18T15:48:06Z</time>
      </trkpt>
      <trkpt lat="46.30417" lon="-0.59447">
        <ele>53</ele>
        <time>2012-10-18T15:48:21Z</time>
      </trkpt>
      <trkpt lat="46.30411" lon="-0.5944">
        <ele>55</ele>
        <time>2012-10-18T15:48:26Z</time>
      </trkpt>
      <trkpt lat="46.30405" lon="-0.5943">
        <ele>55</ele>
        <time>2012-10-18T15:48:31Z</time>
      </trkpt>
      <trkpt lat="46.30404" lon="-0.59427">
        <ele>55</ele>
        <time>2012-10-18T15:48:36Z</time>
      </trkpt>
      <trkpt lat="46.30399" lon="-0.59421">
        <ele>54</ele>
        <time>2012-10-18T15:48:41Z</time>
      </trkpt>
      <trkpt lat="46.30395" lon="-0.59414">
        <ele>54</ele>
        <time>2012-10-18T15:48:46Z</time>
      </trkpt>
      <trkpt lat="46.30393" lon="-0.59415">
        <ele>54</ele>
        <time>2012-10-18T15:48:51Z</time>
      </trkpt>
      <trkpt lat="46.30391" lon="-0.5941">
        <ele>54</ele>
        <time>2012-10-18T15:48:56Z</time>
      </trkpt>
      <trkpt lat="46.30388" lon="-0.59408">
        <ele>55</ele>
        <time>2012-10-18T15:49:01Z</time>
      </trkpt>
      <trkpt lat="46.30384" lon="-0.59402">
        <ele>54</ele>
        <time>2012-10-18T15:49:06Z</time>
      </trkpt>
      <trkpt lat="46.30381" lon="-0.59397">
        <ele>56</ele>
        <time>2012-10-18T15:49:11Z</time>
      </trkpt>
      <trkpt lat="46.30378" lon="-0.59392">
        <ele>55</ele>
        <time>2012-10-18T15:49:16Z</time>
      </trkpt>
      <trkpt lat="46.30372" lon="-0.59387">
        <ele>54</ele>
        <time>2012-10-18T15:49:21Z</time>
      </trkpt>
      <trkpt lat="46.30367" lon="-0.59384">
        <ele>50</ele>
        <time>2012-10-18T15:49:26Z</time>
      </trkpt>
      <trkpt lat="46.30363" lon="-0.59384">
        <ele>50</ele>
        <time>2012-10-18T15:49:31Z</time>
      </trkpt>
      <trkpt lat="46.30359" lon="-0.59382">
        <ele>51</ele>
        <time>2012-10-18T15:49:36Z</time>
      </trkpt>
      <trkpt lat="46.30351" lon="-0.5938">
        <ele>50</ele>
        <time>2012-10-18T15:49:41Z</time>
      </trkpt>
      <trkpt lat="46.30346" lon="-0.5938">
        <ele>53</ele>
        <time>2012-10-18T15:49:46Z</time>
      </trkpt>
      <trkpt lat="46.30339" lon="-0.59379">
        <ele>53</ele>
        <time>2012-10-18T15:49:51Z</time>
      </trkpt>
      <trkpt lat="46.30333" lon="-0.59379">
        <ele>56</ele>
        <time>2012-10-18T15:49:56Z</time>
      </trkpt>
      <trkpt lat="46.30332" lon="-0.59377">
        <ele>55</ele>
        <time>2012-10-18T15:50:01Z</time>
      </trkpt>
      <trkpt lat="46.30327" lon="-0.59376">
        <ele>54</ele>
        <time>2012-10-18T15:50:06Z</time>
      </trkpt>
      <trkpt lat="46.30325" lon="-0.5937">
        <ele>55</ele>
        <time>2012-10-18T15:50:11Z</time>
      </trkpt>
      <trkpt lat="46.30323" lon="-0.59364">
        <ele>54</ele>
        <time>2012-10-18T15:50:16Z</time>
      </trkpt>
    </trkseg>
  </trk>
</gpx>